PWSweather.com
Personal Weather Stations
Station Observations
DL5ARK
SonnebergDE

SonnebergDE

Lat: 50.34904861, Lon: 11.18112087

Elevation: 1214

Station Type: Selfmade

http://www.sumbarg.de

High Low Average
Temperature 47.8°F8.8°C 42.0°F5.6°C 43.4°F6.3°C
Dew Point 49.3°F9.6°C 45.5°F7.5°C 47.1°F8.4°C
Winds 6.4 mph 10.3 kmh Calm Calm 1.0 mph W1.6 kmh W
Wind Gusts 6.5 mph10.5 kmh -- 1.0 mph1.6 kmh
Humidity 91% 85% 89%
Pressure 30.13 in1020.3 mb 30.01 in1016.3 mb -
Precipitation 0.04 in1.0 mm - -
Hour Temp Dew Point Humidity Winds Wind Gusts Pressure Precip Precip Rate Daily Precip Total
12:00 AM 42.7°F5.9°C 46.6°F8.1°C 89% 2.4 mph 3.9 kmh 2.4 mph3.9 kmh 30.03 in1016.9 mb 0.00 in0.0 mm 0.00 in0.0 mm 0.00 in0.0 mm
12:03 AM 42.6°F5.9°C 46.5°F8.1°C 89% 2.0 mph NNW3.2 kmh NNW 2.0 mph3.2 kmh 30.03 in1016.9 mb 0.00 in0.0 mm 0.00 in0.0 mm 0.00 in0.0 mm
12:06 AM 42.5°F5.8°C 46.6°F8.1°C 89% 2.0 mph 3.2 kmh 2.0 mph3.2 kmh 30.02 in1016.6 mb 0.00 in0.0 mm 0.00 in0.0 mm 0.00 in0.0 mm
12:09 AM 42.6°F5.9°C 46.5°F8.1°C 89% 2.4 mph 3.9 kmh 2.4 mph3.9 kmh 30.03 in1016.9 mb 0.00 in0.0 mm 0.00 in0.0 mm 0.00 in0.0 mm
12:12 AM 42.6°F5.9°C 46.7°F8.2°C 89% 0.8 mph NNW1.3 kmh NNW 0.8 mph1.3 kmh 30.03 in1016.9 mb 0.00 in0.0 mm 0.00 in0.0 mm 0.00 in0.0 mm
12:15 AM 42.5°F5.8°C 46.4°F8.0°C 89% 0.4 mph NNW0.6 kmh NNW 0.4 mph0.6 kmh 30.03 in1016.9 mb 0.00 in0.0 mm 0.00 in0.0 mm 0.00 in0.0 mm
12:18 AM 42.5°F5.8°C 46.4°F8.0°C 89% 0.4 mph 0.6 kmh 0.4 mph0.6 kmh 30.03 in1016.9 mb 0.00 in0.0 mm 0.00 in0.0 mm 0.00 in0.0 mm
12:21 AM 42.5°F5.8°C 46.4°F8.0°C 89% Calm Calm -- 30.02 in1016.6 mb 0.00 in0.0 mm 0.00 in0.0 mm 0.02 in0.5 mm
12:24 AM 42.5°F5.8°C 46.7°F8.2°C 89% Calm Calm -- 30.03 in1016.9 mb 0.00 in0.0 mm 0.00 in0.0 mm 0.02 in0.5 mm
12:27 AM 42.5°F5.8°C 46.6°F8.1°C 88% Calm Calm -- 30.03 in1016.9 mb 0.00 in0.0 mm 0.00 in0.0 mm 0.02 in0.5 mm
12:30 AM 42.5°F5.8°C 46.6°F8.1°C 89% 0.8 mph 1.3 kmh 0.8 mph1.3 kmh 30.03 in1016.9 mb 0.00 in0.0 mm 0.00 in0.0 mm 0.02 in0.5 mm
12:33 AM 42.5°F5.8°C 46.5°F8.1°C 88% Calm Calm -- 30.03 in1016.9 mb 0.00 in0.0 mm 0.00 in0.0 mm 0.02 in0.5 mm
12:36 AM 42.5°F5.8°C 46.4°F8.0°C 89% 0.4 mph NNW0.6 kmh NNW 0.4 mph0.6 kmh 30.02 in1016.6 mb 0.00 in0.0 mm 0.00 in0.0 mm 0.02 in0.5 mm
12:39 AM 42.5°F5.8°C 46.7°F8.2°C 89% 1.2 mph 1.9 kmh 1.2 mph1.9 kmh 30.02 in1016.6 mb 0.00 in0.0 mm 0.00 in0.0 mm 0.02 in0.5 mm
12:42 AM 42.5°F5.8°C 46.5°F8.1°C 88% Calm Calm -- 30.03 in1016.9 mb 0.00 in0.0 mm 0.00 in0.0 mm 0.02 in0.5 mm
12:45 AM 42.5°F5.8°C 46.6°F8.1°C 89% Calm Calm -- 30.02 in1016.6 mb 0.00 in0.0 mm 0.00 in0.0 mm 0.02 in0.5 mm
12:48 AM 42.5°F5.8°C 46.4°F8.0°C 89% 0.8 mph 1.3 kmh 0.8 mph1.3 kmh 30.01 in1016.3 mb 0.00 in0.0 mm 0.00 in0.0 mm 0.02 in0.5 mm
12:51 AM 42.5°F5.8°C 46.5°F8.1°C 89% 2.4 mph NNW3.9 kmh NNW 2.4 mph3.9 kmh 30.02 in1016.6 mb 0.00 in0.0 mm 0.00 in0.0 mm 0.02 in0.5 mm
12:54 AM 42.5°F5.8°C 46.4°F8.0°C 89% 1.2 mph NNW1.9 kmh NNW 1.2 mph1.9 kmh 30.02 in1016.6 mb 0.00 in0.0 mm 0.00 in0.0 mm 0.02 in0.5 mm
12:57 AM 42.5°F5.8°C 46.4°F8.0°C 89% 1.2 mph NNW1.9 kmh NNW 1.2 mph1.9 kmh 30.01 in1016.3 mb 0.00 in0.0 mm 0.00 in0.0 mm 0.02 in0.5 mm
01:00 AM 42.4°F5.8°C 46.2°F7.9°C 88% 2.4 mph NNW3.9 kmh NNW 2.4 mph3.9 kmh 30.02 in1016.6 mb 0.00 in0.0 mm 0.00 in0.0 mm 0.02 in0.5 mm
01:03 AM 42.4°F5.8°C 46.4°F8.0°C 89% 0.8 mph NNW1.3 kmh NNW 0.8 mph1.3 kmh 30.01 in1016.3 mb 0.00 in0.0 mm 0.00 in0.0 mm 0.02 in0.5 mm
01:06 AM 42.4°F5.8°C 46.4°F8.0°C 89% 0.8 mph NNW1.3 kmh NNW 0.8 mph1.3 kmh 30.01 in1016.3 mb 0.00 in0.0 mm 0.00 in0.0 mm 0.02 in0.5 mm
01:09 AM 42.2°F5.7°C 46.4°F8.0°C 88% Calm Calm -- 30.02 in1016.6 mb 0.00 in0.0 mm 0.00 in0.0 mm 0.02 in0.5 mm
01:12 AM 42.2°F5.7°C 46.4°F8.0°C 89% Calm Calm -- 30.02 in1016.6 mb 0.00 in0.0 mm 0.00 in0.0 mm 0.02 in0.5 mm
01:15 AM 42.2°F5.7°C 46.5°F8.1°C 89% Calm Calm -- 30.02 in1016.6 mb 0.00 in0.0 mm 0.00 in0.0 mm 0.02 in0.5 mm
01:18 AM 42.2°F5.7°C 46.6°F8.1°C 89% Calm Calm -- 30.02 in1016.6 mb 0.00 in0.0 mm 0.00 in0.0 mm 0.02 in0.5 mm
01:21 AM 42.2°F5.7°C 46.5°F8.1°C 89% Calm Calm -- 30.02 in1016.6 mb 0.00 in0.0 mm 0.00 in0.0 mm 0.02 in0.5 mm
01:24 AM 42.2°F5.7°C 46.4°F8.0°C 88% Calm Calm -- 30.02 in1016.6 mb 0.00 in0.0 mm 0.00 in0.0 mm 0.02 in0.5 mm
01:27 AM 42.1°F5.6°C 46.4°F8.0°C 89% Calm Calm -- 30.02 in1016.6 mb 0.00 in0.0 mm 0.00 in0.0 mm 0.02 in0.5 mm
01:30 AM 42.2°F5.7°C 46.0°F7.8°C 88% Calm Calm -- 30.03 in1016.9 mb 0.00 in0.0 mm 0.00 in0.0 mm 0.02 in0.5 mm
01:33 AM 42.2°F5.7°C 46.4°F8.0°C 89% Calm Calm -- 30.03 in1016.9 mb 0.00 in0.0 mm 0.00 in0.0 mm 0.02 in0.5 mm
01:36 AM 42.2°F5.7°C 46.5°F8.1°C 89% Calm Calm -- 30.03 in1016.9 mb 0.00 in0.0 mm 0.00 in0.0 mm 0.02 in0.5 mm
01:39 AM 42.1°F5.6°C 46.3°F7.9°C 89% Calm Calm -- 30.02 in1016.6 mb 0.00 in0.0 mm 0.00 in0.0 mm 0.02 in0.5 mm
01:42 AM 42.2°F5.7°C 46.1°F7.8°C 88% Calm Calm -- 30.03 in1016.9 mb 0.00 in0.0 mm 0.00 in0.0 mm 0.02 in0.5 mm
01:45 AM 42.1°F5.6°C 46.5°F8.1°C 89% Calm Calm -- 30.03 in1016.9 mb 0.00 in0.0 mm 0.00 in0.0 mm 0.02 in0.5 mm
01:48 AM 42.1°F5.6°C 46.3°F7.9°C 89% Calm Calm -- 30.03 in1016.9 mb 0.00 in0.0 mm 0.00 in0.0 mm 0.02 in0.5 mm
01:51 AM 42.1°F5.6°C 46.5°F8.1°C 89% Calm Calm -- 30.03 in1016.9 mb 0.00 in0.0 mm 0.00 in0.0 mm 0.02 in0.5 mm
01:54 AM 42.2°F5.7°C 46.5°F8.1°C 89% Calm Calm -- 30.03 in1016.9 mb 0.00 in0.0 mm 0.00 in0.0 mm 0.02 in0.5 mm
01:57 AM 42.0°F5.6°C 46.6°F8.1°C 89% Calm Calm -- 30.03 in1016.9 mb 0.00 in0.0 mm 0.00 in0.0 mm 0.02 in0.5 mm
02:00 AM 42.0°F5.6°C 46.5°F8.1°C 89% Calm Calm -- 30.03 in1016.9 mb 0.00 in0.0 mm 0.00 in0.0 mm 0.02 in0.5 mm
02:03 AM 42.0°F5.6°C 46.4°F8.0°C 89% Calm Calm -- 30.03 in1016.9 mb 0.00 in0.0 mm 0.00 in0.0 mm 0.02 in0.5 mm
02:06 AM 42.1°F5.6°C 46.5°F8.1°C 89% Calm Calm -- 30.03 in1016.9 mb 0.00 in0.0 mm 0.00 in0.0 mm 0.02 in0.5 mm
02:09 AM 42.1°F5.6°C 46.3°F7.9°C 89% Calm Calm -- 30.03 in1016.9 mb 0.00 in0.0 mm 0.00 in0.0 mm 0.02 in0.5 mm
02:12 AM 42.1°F5.6°C 46.4°F8.0°C 89% Calm Calm -- 30.03 in1016.9 mb 0.00 in0.0 mm 0.00 in0.0 mm 0.02 in0.5 mm
02:15 AM 42.1°F5.6°C 46.3°F7.9°C 89% Calm Calm -- 30.03 in1016.9 mb 0.00 in0.0 mm 0.00 in0.0 mm 0.02 in0.5 mm
02:18 AM 42.0°F5.6°C 46.2°F7.9°C 89% Calm Calm -- 30.03 in1016.9 mb 0.00 in0.0 mm 0.00 in0.0 mm 0.02 in0.5 mm
02:21 AM 42.0°F5.6°C 46.4°F8.0°C 89% Calm Calm -- 30.03 in1016.9 mb 0.00 in0.0 mm 0.00 in0.0 mm 0.02 in0.5 mm
02:24 AM 42.1°F5.6°C 46.4°F8.0°C 89% Calm Calm -- 30.03 in1016.9 mb 0.00 in0.0 mm 0.00 in0.0 mm 0.02 in0.5 mm
02:27 AM 42.1°F5.6°C 46.5°F8.1°C 89% Calm Calm -- 30.03 in1016.9 mb 0.00 in0.0 mm 0.00 in0.0 mm 0.02 in0.5 mm
02:30 AM 42.1°F5.6°C 46.4°F8.0°C 89% Calm Calm -- 30.03 in1016.9 mb 0.00 in0.0 mm 0.00 in0.0 mm 0.02 in0.5 mm
02:33 AM 42.1°F5.6°C 46.5°F8.1°C 89% Calm Calm -- 30.02 in1016.6 mb 0.00 in0.0 mm 0.00 in0.0 mm 0.02 in0.5 mm
02:36 AM 42.1°F5.6°C 46.3°F7.9°C 89% Calm Calm -- 30.03 in1016.9 mb 0.00 in0.0 mm 0.00 in0.0 mm 0.02 in0.5 mm
02:39 AM 42.2°F5.7°C 46.4°F8.0°C 89% Calm Calm -- 30.02 in1016.6 mb 0.00 in0.0 mm 0.00 in0.0 mm 0.02 in0.5 mm
02:42 AM 42.1°F5.6°C 46.3°F7.9°C 89% Calm Calm -- 30.02 in1016.6 mb 0.00 in0.0 mm 0.00 in0.0 mm 0.02 in0.5 mm
02:45 AM 42.1°F5.6°C 46.1°F7.8°C 89% Calm Calm -- 30.02 in1016.6 mb 0.00 in0.0 mm 0.00 in0.0 mm 0.02 in0.5 mm
02:48 AM 42.1°F5.6°C 46.1°F7.8°C 88% Calm Calm -- 30.02 in1016.6 mb 0.00 in0.0 mm 0.00 in0.0 mm 0.02 in0.5 mm
02:51 AM 42.2°F5.7°C 46.3°F7.9°C 89% Calm Calm -- 30.03 in1016.9 mb 0.00 in0.0 mm 0.00 in0.0 mm 0.02 in0.5 mm
02:54 AM 42.2°F5.7°C 46.4°F8.0°C 89% Calm Calm -- 30.02 in1016.6 mb 0.00 in0.0 mm 0.00 in0.0 mm 0.02 in0.5 mm
02:57 AM 42.2°F5.7°C 46.5°F8.1°C 89% Calm Calm -- 30.02 in1016.6 mb 0.00 in0.0 mm 0.00 in0.0 mm 0.02 in0.5 mm
03:00 AM 42.1°F5.6°C 46.4°F8.0°C 89% Calm Calm -- 30.02 in1016.6 mb 0.00 in0.0 mm 0.00 in0.0 mm 0.02 in0.5 mm
03:03 AM 42.1°F5.6°C 46.4°F8.0°C 89% Calm Calm -- 30.02 in1016.6 mb 0.00 in0.0 mm 0.00 in0.0 mm 0.02 in0.5 mm
03:06 AM 42.2°F5.7°C 46.4°F8.0°C 89% Calm Calm -- 30.03 in1016.9 mb 0.00 in0.0 mm 0.00 in0.0 mm 0.02 in0.5 mm
03:09 AM 42.1°F5.6°C 46.3°F7.9°C 89% Calm Calm -- 30.02 in1016.6 mb 0.00 in0.0 mm 0.00 in0.0 mm 0.02 in0.5 mm
03:12 AM 42.1°F5.6°C 46.6°F8.1°C 89% Calm Calm -- 30.02 in1016.6 mb 0.00 in0.0 mm 0.00 in0.0 mm 0.02 in0.5 mm
03:15 AM 42.1°F5.6°C 46.4°F8.0°C 89% Calm Calm -- 30.02 in1016.6 mb 0.00 in0.0 mm 0.00 in0.0 mm 0.02 in0.5 mm
03:18 AM 42.2°F5.7°C 45.9°F7.7°C 88% Calm Calm -- 30.02 in1016.6 mb 0.00 in0.0 mm 0.00 in0.0 mm 0.02 in0.5 mm
03:21 AM 42.2°F5.7°C 46.5°F8.1°C 89% Calm Calm -- 30.02 in1016.6 mb 0.00 in0.0 mm 0.00 in0.0 mm 0.02 in0.5 mm
03:24 AM 42.4°F5.8°C 46.6°F8.1°C 90% Calm Calm -- 30.02 in1016.6 mb 0.00 in0.0 mm 0.00 in0.0 mm 0.02 in0.5 mm
03:27 AM 42.2°F5.7°C 46.4°F8.0°C 89% Calm Calm -- 30.02 in1016.6 mb 0.00 in0.0 mm 0.00 in0.0 mm 0.02 in0.5 mm
03:30 AM 42.1°F5.6°C 46.4°F8.0°C 89% Calm Calm -- 30.02 in1016.6 mb 0.00 in0.0 mm 0.00 in0.0 mm 0.02 in0.5 mm
03:33 AM 42.2°F5.7°C 46.1°F7.8°C 89% Calm Calm -- 30.03 in1016.9 mb 0.00 in0.0 mm 0.00 in0.0 mm 0.02 in0.5 mm
03:39 AM 42.2°F5.7°C 46.3°F7.9°C 89% Calm Calm -- 30.03 in1016.9 mb 0.00 in0.0 mm 0.00 in0.0 mm 0.02 in0.5 mm
03:42 AM 42.2°F5.7°C 46.4°F8.0°C 89% Calm Calm -- 30.03 in1016.9 mb 0.00 in0.0 mm 0.00 in0.0 mm 0.02 in0.5 mm
03:45 AM 42.4°F5.8°C 46.5°F8.1°C 90% Calm Calm -- 30.03 in1016.9 mb 0.00 in0.0 mm 0.00 in0.0 mm 0.02 in0.5 mm
03:48 AM 42.1°F5.6°C 46.5°F8.1°C 90% Calm Calm -- 30.03 in1016.9 mb 0.00 in0.0 mm 0.00 in0.0 mm 0.02 in0.5 mm
03:51 AM 42.2°F5.7°C 46.3°F7.9°C 90% Calm Calm -- 30.03 in1016.9 mb 0.00 in0.0 mm 0.00 in0.0 mm 0.02 in0.5 mm
03:54 AM 42.2°F5.7°C 46.3°F7.9°C 90% Calm Calm -- 30.03 in1016.9 mb 0.00 in0.0 mm 0.00 in0.0 mm 0.02 in0.5 mm
03:57 AM 42.1°F5.6°C 46.5°F8.1°C 90% Calm Calm -- 30.03 in1016.9 mb 0.00 in0.0 mm 0.00 in0.0 mm 0.02 in0.5 mm
04:00 AM 42.2°F5.7°C 46.1°F7.8°C 89% Calm Calm -- 30.03 in1016.9 mb 0.00 in0.0 mm 0.00 in0.0 mm 0.02 in0.5 mm
04:03 AM 42.2°F5.7°C 46.6°F8.1°C 90% Calm Calm -- 30.03 in1016.9 mb 0.00 in0.0 mm 0.00 in0.0 mm 0.02 in0.5 mm
04:06 AM 42.2°F5.7°C 46.5°F8.1°C 90% Calm Calm -- 30.03 in1016.9 mb 0.00 in0.0 mm 0.00 in0.0 mm 0.02 in0.5 mm
04:09 AM 42.1°F5.6°C 46.2°F7.9°C 89% Calm Calm -- 30.03 in1016.9 mb 0.00 in0.0 mm 0.00 in0.0 mm 0.02 in0.5 mm
04:12 AM 42.2°F5.7°C 46.5°F8.1°C 90% Calm Calm -- 30.03 in1016.9 mb 0.00 in0.0 mm 0.00 in0.0 mm 0.02 in0.5 mm
04:15 AM 42.2°F5.7°C 46.1°F7.8°C 89% Calm Calm -- 30.03 in1016.9 mb 0.00 in0.0 mm 0.00 in0.0 mm 0.02 in0.5 mm
04:18 AM 42.2°F5.7°C 46.4°F8.0°C 89% Calm Calm -- 30.03 in1016.9 mb 0.00 in0.0 mm 0.00 in0.0 mm 0.02 in0.5 mm
04:21 AM 42.2°F5.7°C 46.3°F7.9°C 90% Calm Calm -- 30.03 in1016.9 mb 0.00 in0.0 mm 0.00 in0.0 mm 0.02 in0.5 mm
04:24 AM 42.1°F5.6°C 46.4°F8.0°C 90% Calm Calm -- 30.03 in1016.9 mb 0.00 in0.0 mm 0.00 in0.0 mm 0.02 in0.5 mm
04:27 AM 42.1°F5.6°C 46.5°F8.1°C 90% Calm Calm -- 30.03 in1016.9 mb 0.00 in0.0 mm 0.00 in0.0 mm 0.02 in0.5 mm
04:30 AM 42.4°F5.8°C 46.7°F8.2°C 90% Calm Calm -- 30.03 in1016.9 mb 0.00 in0.0 mm 0.00 in0.0 mm 0.02 in0.5 mm
04:33 AM 42.4°F5.8°C 46.3°F7.9°C 89% Calm Calm -- 30.03 in1016.9 mb 0.00 in0.0 mm 0.00 in0.0 mm 0.02 in0.5 mm
04:39 AM 42.2°F5.7°C 46.5°F8.1°C 90% Calm Calm -- 30.03 in1016.9 mb 0.00 in0.0 mm 0.00 in0.0 mm 0.02 in0.5 mm
04:42 AM 42.2°F5.7°C 46.6°F8.1°C 90% Calm Calm -- 30.03 in1016.9 mb 0.00 in0.0 mm 0.00 in0.0 mm 0.02 in0.5 mm
04:45 AM 42.2°F5.7°C 46.2°F7.9°C 89% Calm Calm -- 30.03 in1016.9 mb 0.00 in0.0 mm 0.00 in0.0 mm 0.02 in0.5 mm
04:48 AM 42.2°F5.7°C 46.6°F8.1°C 90% Calm Calm -- 30.03 in1016.9 mb 0.00 in0.0 mm 0.00 in0.0 mm 0.02 in0.5 mm
04:51 AM 42.2°F5.7°C 46.6°F8.1°C 90% Calm Calm -- 30.03 in1016.9 mb 0.00 in0.0 mm 0.00 in0.0 mm 0.02 in0.5 mm
04:54 AM 42.2°F5.7°C 46.3°F7.9°C 90% Calm Calm -- 30.03 in1016.9 mb 0.00 in0.0 mm 0.00 in0.0 mm 0.02 in0.5 mm
04:57 AM 42.4°F5.8°C 46.7°F8.2°C 90% Calm Calm -- 30.03 in1016.9 mb 0.00 in0.0 mm 0.00 in0.0 mm 0.02 in0.5 mm
05:00 AM 42.4°F5.8°C 46.5°F8.1°C 90% Calm Calm -- 30.03 in1016.9 mb 0.00 in0.0 mm 0.00 in0.0 mm 0.02 in0.5 mm
05:03 AM 42.4°F5.8°C 46.7°F8.2°C 90% Calm Calm -- 30.03 in1016.9 mb 0.00 in0.0 mm 0.00 in0.0 mm 0.02 in0.5 mm
05:06 AM 42.4°F5.8°C 46.6°F8.1°C 90% Calm Calm -- 30.03 in1016.9 mb 0.00 in0.0 mm 0.00 in0.0 mm 0.02 in0.5 mm
05:09 AM 42.4°F5.8°C 46.7°F8.2°C 90% Calm Calm -- 30.03 in1016.9 mb 0.00 in0.0 mm 0.00 in0.0 mm 0.02 in0.5 mm
05:12 AM 42.4°F5.8°C 46.7°F8.2°C 90% Calm Calm -- 30.03 in1016.9 mb 0.00 in0.0 mm 0.00 in0.0 mm 0.02 in0.5 mm
05:15 AM 42.2°F5.7°C 46.5°F8.1°C 90% Calm Calm -- 30.03 in1016.9 mb 0.00 in0.0 mm 0.00 in0.0 mm 0.02 in0.5 mm
05:18 AM 42.4°F5.8°C 46.7°F8.2°C 90% Calm Calm -- 30.03 in1016.9 mb 0.00 in0.0 mm 0.00 in0.0 mm 0.02 in0.5 mm
05:21 AM 42.4°F5.8°C 46.6°F8.1°C 90% Calm Calm -- 30.03 in1016.9 mb 0.00 in0.0 mm 0.00 in0.0 mm 0.02 in0.5 mm
05:24 AM 42.5°F5.8°C 46.7°F8.2°C 90% Calm Calm -- 30.03 in1016.9 mb 0.00 in0.0 mm 0.00 in0.0 mm 0.02 in0.5 mm
05:27 AM 42.5°F5.8°C 46.8°F8.2°C 90% Calm Calm -- 30.03 in1016.9 mb 0.00 in0.0 mm 0.00 in0.0 mm 0.02 in0.5 mm
05:30 AM 42.5°F5.8°C 46.3°F7.9°C 89% Calm Calm -- 30.03 in1016.9 mb 0.00 in0.0 mm 0.00 in0.0 mm 0.02 in0.5 mm
05:33 AM 42.4°F5.8°C 46.4°F8.0°C 90% Calm Calm -- 30.03 in1016.9 mb 0.00 in0.0 mm 0.00 in0.0 mm 0.02 in0.5 mm
05:36 AM 42.4°F5.8°C 46.7°F8.2°C 90% Calm Calm -- 30.04 in1017.3 mb 0.00 in0.0 mm 0.00 in0.0 mm 0.02 in0.5 mm
05:39 AM 42.5°F5.8°C 46.8°F8.2°C 90% Calm Calm -- 30.03 in1016.9 mb 0.00 in0.0 mm 0.00 in0.0 mm 0.02 in0.5 mm
05:42 AM 42.5°F5.8°C 46.8°F8.2°C 90% Calm Calm -- 30.03 in1016.9 mb 0.00 in0.0 mm 0.00 in0.0 mm 0.02 in0.5 mm
05:45 AM 42.5°F5.8°C 46.8°F8.2°C 90% Calm Calm -- 30.04 in1017.3 mb 0.00 in0.0 mm 0.00 in0.0 mm 0.02 in0.5 mm
05:48 AM 42.5°F5.8°C 46.7°F8.2°C 90% Calm Calm -- 30.04 in1017.3 mb 0.00 in0.0 mm 0.00 in0.0 mm 0.02 in0.5 mm
05:51 AM 42.5°F5.8°C 46.7°F8.2°C 90% Calm Calm -- 30.04 in1017.3 mb 0.00 in0.0 mm 0.00 in0.0 mm 0.02 in0.5 mm
05:54 AM 42.5°F5.8°C 46.5°F8.1°C 90% Calm Calm -- 30.04 in1017.3 mb 0.00 in0.0 mm 0.00 in0.0 mm 0.02 in0.5 mm
05:57 AM 42.5°F5.8°C 46.5°F8.1°C 90% Calm Calm -- 30.04 in1017.3 mb 0.00 in0.0 mm 0.00 in0.0 mm 0.02 in0.5 mm
06:00 AM 42.5°F5.8°C 46.5°F8.1°C 90% Calm Calm -- 30.04 in1017.3 mb 0.00 in0.0 mm 0.00 in0.0 mm 0.02 in0.5 mm
06:03 AM 42.5°F5.8°C 46.5°F8.1°C 90% Calm Calm -- 30.04 in1017.3 mb 0.00 in0.0 mm 0.00 in0.0 mm 0.02 in0.5 mm
06:06 AM 42.5°F5.8°C 46.2°F7.9°C 89% Calm Calm -- 30.04 in1017.3 mb 0.00 in0.0 mm 0.00 in0.0 mm 0.02 in0.5 mm
06:09 AM 42.4°F5.8°C 46.8°F8.2°C 90% Calm Calm -- 30.04 in1017.3 mb 0.00 in0.0 mm 0.00 in0.0 mm 0.02 in0.5 mm
06:12 AM 42.4°F5.8°C 46.7°F8.2°C 90% Calm Calm -- 30.05 in1017.6 mb 0.00 in0.0 mm 0.00 in0.0 mm 0.02 in0.5 mm
06:15 AM 42.4°F5.8°C 46.9°F8.3°C 90% Calm Calm -- 30.05 in1017.6 mb 0.00 in0.0 mm 0.00 in0.0 mm 0.04 in1.0 mm
06:18 AM 42.4°F5.8°C 46.4°F8.0°C 90% Calm Calm -- 30.05 in1017.6 mb 0.00 in0.0 mm 0.00 in0.0 mm 0.04 in1.0 mm
06:21 AM 42.5°F5.8°C 46.7°F8.2°C 90% Calm Calm -- 30.04 in1017.3 mb 0.00 in0.0 mm 0.00 in0.0 mm 0.04 in1.0 mm
06:24 AM 42.5°F5.8°C 46.7°F8.2°C 90% Calm Calm -- 30.05 in1017.6 mb 0.00 in0.0 mm 0.00 in0.0 mm 0.04 in1.0 mm
06:27 AM 42.5°F5.8°C 46.6°F8.1°C 90% Calm Calm -- 30.05 in1017.6 mb 0.00 in0.0 mm 0.00 in0.0 mm 0.04 in1.0 mm
06:30 AM 42.5°F5.8°C 46.4°F8.0°C 90% Calm Calm -- 30.05 in1017.6 mb 0.00 in0.0 mm 0.00 in0.0 mm 0.04 in1.0 mm
06:33 AM 42.4°F5.8°C 46.9°F8.3°C 90% Calm Calm -- 30.06 in1017.9 mb 0.00 in0.0 mm 0.00 in0.0 mm 0.04 in1.0 mm
06:36 AM 42.4°F5.8°C 46.6°F8.1°C 90% Calm Calm -- 30.05 in1017.6 mb 0.00 in0.0 mm 0.00 in0.0 mm 0.04 in1.0 mm
06:39 AM 42.4°F5.8°C 46.7°F8.2°C 90% Calm Calm -- 30.06 in1017.9 mb 0.00 in0.0 mm 0.00 in0.0 mm 0.04 in1.0 mm
06:42 AM 42.4°F5.8°C 46.8°F8.2°C 90% Calm Calm -- 30.05 in1017.6 mb 0.00 in0.0 mm 0.00 in0.0 mm 0.04 in1.0 mm
06:45 AM 42.4°F5.8°C 46.7°F8.2°C 90% Calm Calm -- 30.06 in1017.9 mb 0.00 in0.0 mm 0.00 in0.0 mm 0.04 in1.0 mm
06:48 AM 42.4°F5.8°C 46.5°F8.1°C 90% Calm Calm -- 30.06 in1017.9 mb 0.00 in0.0 mm 0.00 in0.0 mm 0.04 in1.0 mm
06:51 AM 42.4°F5.8°C 46.8°F8.2°C 90% Calm Calm -- 30.06 in1017.9 mb 0.00 in0.0 mm 0.00 in0.0 mm 0.04 in1.0 mm
06:54 AM 42.2°F5.7°C 46.8°F8.2°C 90% Calm Calm -- 30.06 in1017.9 mb 0.00 in0.0 mm 0.00 in0.0 mm 0.04 in1.0 mm
06:57 AM 42.4°F5.8°C 46.6°F8.1°C 90% Calm Calm -- 30.06 in1017.9 mb 0.00 in0.0 mm 0.00 in0.0 mm 0.04 in1.0 mm
07:00 AM 42.4°F5.8°C 46.8°F8.2°C 90% Calm Calm -- 30.06 in1017.9 mb 0.00 in0.0 mm 0.00 in0.0 mm 0.04 in1.0 mm
07:03 AM 42.5°F5.8°C 46.6°F8.1°C 90% Calm Calm -- 30.06 in1017.9 mb 0.00 in0.0 mm 0.00 in0.0 mm 0.04 in1.0 mm
07:06 AM 42.4°F5.8°C 46.6°F8.1°C 90% Calm Calm -- 30.06 in1017.9 mb 0.00 in0.0 mm 0.00 in0.0 mm 0.04 in1.0 mm
07:09 AM 42.4°F5.8°C 46.5°F8.1°C 90% Calm Calm -- 30.06 in1017.9 mb 0.00 in0.0 mm 0.00 in0.0 mm 0.04 in1.0 mm
07:12 AM 42.5°F5.8°C 46.7°F8.2°C 90% Calm Calm -- 30.06 in1017.9 mb 0.00 in0.0 mm 0.00 in0.0 mm 0.04 in1.0 mm
07:15 AM 42.4°F5.8°C 46.6°F8.1°C 90% Calm Calm -- 30.06 in1017.9 mb 0.00 in0.0 mm 0.00 in0.0 mm 0.04 in1.0 mm
07:18 AM 42.4°F5.8°C 46.9°F8.3°C 91% Calm Calm -- 30.07 in1018.3 mb 0.00 in0.0 mm 0.00 in0.0 mm 0.04 in1.0 mm
07:21 AM 42.4°F5.8°C 46.6°F8.1°C 90% Calm Calm -- 30.06 in1017.9 mb 0.00 in0.0 mm 0.00 in0.0 mm 0.04 in1.0 mm
07:24 AM 42.4°F5.8°C 46.3°F7.9°C 89% Calm Calm -- 30.06 in1017.9 mb 0.00 in0.0 mm 0.00 in0.0 mm 0.04 in1.0 mm
07:27 AM 42.4°F5.8°C 46.6°F8.1°C 90% Calm Calm -- 30.06 in1017.9 mb 0.00 in0.0 mm 0.00 in0.0 mm 0.04 in1.0 mm
07:30 AM 42.5°F5.8°C 46.8°F8.2°C 91% Calm Calm -- 30.07 in1018.3 mb 0.00 in0.0 mm 0.00 in0.0 mm 0.04 in1.0 mm
07:33 AM 42.5°F5.8°C 46.9°F8.3°C 90% Calm Calm -- 30.06 in1017.9 mb 0.00 in0.0 mm 0.00 in0.0 mm 0.04 in1.0 mm
07:36 AM 42.5°F5.8°C 46.8°F8.2°C 90% Calm Calm -- 30.06 in1017.9 mb 0.00 in0.0 mm 0.00 in0.0 mm 0.04 in1.0 mm
07:39 AM 42.5°F5.8°C 46.9°F8.3°C 90% Calm Calm -- 30.07 in1018.3 mb 0.00 in0.0 mm 0.00 in0.0 mm 0.04 in1.0 mm
07:42 AM 42.5°F5.8°C 46.7°F8.2°C 90% Calm Calm -- 30.07 in1018.3 mb 0.00 in0.0 mm 0.00 in0.0 mm 0.04 in1.0 mm
07:45 AM 42.5°F5.8°C 46.9°F8.3°C 91% Calm Calm -- 30.07 in1018.3 mb 0.00 in0.0 mm 0.00 in0.0 mm 0.04 in1.0 mm
07:48 AM 42.6°F5.9°C 46.8°F8.2°C 90% Calm Calm -- 30.07 in1018.3 mb 0.00 in0.0 mm 0.00 in0.0 mm 0.04 in1.0 mm
07:51 AM 42.5°F5.8°C 46.8°F8.2°C 91% Calm Calm -- 30.07 in1018.3 mb 0.00 in0.0 mm 0.00 in0.0 mm 0.04 in1.0 mm
07:54 AM 42.6°F5.9°C 46.7°F8.2°C 90% Calm Calm -- 30.07 in1018.3 mb 0.00 in0.0 mm 0.00 in0.0 mm 0.04 in1.0 mm
07:57 AM 42.6°F5.9°C 46.5°F8.1°C 90% Calm Calm -- 30.07 in1018.3 mb 0.00 in0.0 mm 0.00 in0.0 mm 0.04 in1.0 mm
08:00 AM 42.6°F5.9°C 46.8°F8.2°C 91% Calm Calm -- 30.07 in1018.3 mb 0.00 in0.0 mm 0.00 in0.0 mm 0.04 in1.0 mm
08:03 AM 42.7°F5.9°C 46.8°F8.2°C 91% Calm Calm -- 30.07 in1018.3 mb 0.00 in0.0 mm 0.00 in0.0 mm 0.04 in1.0 mm
08:06 AM 42.7°F5.9°C 46.9°F8.3°C 91% Calm Calm -- 30.07 in1018.3 mb 0.00 in0.0 mm 0.00 in0.0 mm 0.04 in1.0 mm
08:09 AM 42.7°F5.9°C 46.9°F8.3°C 91% Calm Calm -- 30.07 in1018.3 mb 0.00 in0.0 mm 0.00 in0.0 mm 0.04 in1.0 mm
08:12 AM 42.7°F5.9°C 47.1°F8.4°C 91% Calm Calm -- 30.08 in1018.6 mb 0.00 in0.0 mm 0.00 in0.0 mm 0.04 in1.0 mm
08:15 AM 42.7°F5.9°C 46.9°F8.3°C 91% Calm Calm -- 30.07 in1018.3 mb 0.00 in0.0 mm 0.00 in0.0 mm 0.04 in1.0 mm
08:18 AM 42.7°F5.9°C 47.0°F8.3°C 91% Calm Calm -- 30.07 in1018.3 mb 0.00 in0.0 mm 0.00 in0.0 mm 0.04 in1.0 mm
08:21 AM 42.7°F5.9°C 47.1°F8.4°C 91% Calm Calm -- 30.08 in1018.6 mb 0.00 in0.0 mm 0.00 in0.0 mm 0.04 in1.0 mm
08:24 AM 42.8°F6.0°C 46.8°F8.2°C 91% Calm Calm -- 30.08 in1018.6 mb 0.00 in0.0 mm 0.00 in0.0 mm 0.04 in1.0 mm
08:27 AM 42.8°F6.0°C 46.8°F8.2°C 91% Calm Calm -- 30.07 in1018.3 mb 0.00 in0.0 mm 0.00 in0.0 mm 0.04 in1.0 mm
08:30 AM 42.8°F6.0°C 46.9°F8.3°C 91% Calm Calm -- 30.08 in1018.6 mb 0.00 in0.0 mm 0.00 in0.0 mm 0.04 in1.0 mm
08:33 AM 42.8°F6.0°C 46.9°F8.3°C 90% Calm Calm -- 30.08 in1018.6 mb 0.00 in0.0 mm 0.00 in0.0 mm 0.04 in1.0 mm
08:36 AM 42.8°F6.0°C 46.9°F8.3°C 90% Calm Calm -- 30.08 in1018.6 mb 0.00 in0.0 mm 0.00 in0.0 mm 0.04 in1.0 mm
08:39 AM 42.9°F6.1°C 46.8°F8.2°C 91% Calm Calm -- 30.08 in1018.6 mb 0.00 in0.0 mm 0.00 in0.0 mm 0.04 in1.0 mm
08:42 AM 42.9°F6.1°C 47.1°F8.4°C 91% Calm Calm -- 30.08 in1018.6 mb 0.00 in0.0 mm 0.00 in0.0 mm 0.04 in1.0 mm
08:45 AM 42.9°F6.1°C 47.1°F8.4°C 91% Calm Calm -- 30.08 in1018.6 mb 0.00 in0.0 mm 0.00 in0.0 mm 0.04 in1.0 mm
08:48 AM 43.0°F6.1°C 46.9°F8.3°C 91% Calm Calm -- 30.08 in1018.6 mb 0.00 in0.0 mm 0.00 in0.0 mm 0.04 in1.0 mm
08:51 AM 43.0°F6.1°C 46.6°F8.1°C 90% Calm Calm -- 30.08 in1018.6 mb 0.00 in0.0 mm 0.00 in0.0 mm 0.04 in1.0 mm
08:54 AM 43.1°F6.2°C 46.9°F8.3°C 90% Calm Calm -- 30.08 in1018.6 mb 0.00 in0.0 mm 0.00 in0.0 mm 0.04 in1.0 mm
08:57 AM 43.0°F6.1°C 47.0°F8.3°C 90% Calm Calm -- 30.08 in1018.6 mb 0.00 in0.0 mm 0.00 in0.0 mm 0.04 in1.0 mm
09:00 AM 43.1°F6.2°C 47.0°F8.3°C 90% Calm Calm -- 30.08 in1018.6 mb 0.00 in0.0 mm 0.00 in0.0 mm 0.04 in1.0 mm
09:03 AM 43.1°F6.2°C 46.9°F8.3°C 90% Calm Calm -- 30.08 in1018.6 mb 0.00 in0.0 mm 0.00 in0.0 mm 0.04 in1.0 mm
09:06 AM 43.1°F6.2°C 47.1°F8.4°C 91% Calm Calm -- 30.08 in1018.6 mb 0.00 in0.0 mm 0.00 in0.0 mm 0.04 in1.0 mm
09:09 AM 43.1°F6.2°C 46.9°F8.3°C 90% Calm Calm -- 30.08 in1018.6 mb 0.00 in0.0 mm 0.00 in0.0 mm 0.04 in1.0 mm
09:12 AM 43.1°F6.2°C 47.1°F8.4°C 91% Calm Calm -- 30.08 in1018.6 mb 0.00 in0.0 mm 0.00 in0.0 mm 0.04 in1.0 mm
09:15 AM 43.3°F6.3°C 47.1°F8.4°C 91% Calm Calm -- 30.08 in1018.6 mb 0.00 in0.0 mm 0.00 in0.0 mm 0.04 in1.0 mm
09:18 AM 43.1°F6.2°C 47.2°F8.4°C 91% Calm Calm -- 30.08 in1018.6 mb 0.00 in0.0 mm 0.00 in0.0 mm 0.04 in1.0 mm
09:21 AM 43.3°F6.3°C 47.0°F8.3°C 89% Calm Calm -- 30.08 in1018.6 mb 0.00 in0.0 mm 0.00 in0.0 mm 0.04 in1.0 mm
09:24 AM 43.1°F6.2°C 47.5°F8.6°C 91% Calm Calm -- 30.08 in1018.6 mb 0.00 in0.0 mm 0.00 in0.0 mm 0.04 in1.0 mm
09:27 AM 43.1°F6.2°C 47.2°F8.4°C 91% Calm Calm -- 30.09 in1019.0 mb 0.00 in0.0 mm 0.00 in0.0 mm 0.04 in1.0 mm
09:30 AM 43.3°F6.3°C 47.2°F8.4°C 91% Calm Calm -- 30.09 in1019.0 mb 0.00 in0.0 mm 0.00 in0.0 mm 0.04 in1.0 mm
09:33 AM 43.3°F6.3°C 47.4°F8.6°C 91% Calm Calm -- 30.08 in1018.6 mb 0.00 in0.0 mm 0.00 in0.0 mm 0.04 in1.0 mm
09:36 AM 43.3°F6.3°C 47.3°F8.5°C 91% Calm Calm -- 30.09 in1019.0 mb 0.00 in0.0 mm 0.00 in0.0 mm 0.04 in1.0 mm
09:39 AM 43.1°F6.2°C 47.1°F8.4°C 90% Calm Calm -- 30.09 in1019.0 mb 0.00 in0.0 mm 0.00 in0.0 mm 0.04 in1.0 mm
09:42 AM 43.1°F6.2°C 47.3°F8.5°C 91% Calm Calm -- 30.10 in1019.3 mb 0.00 in0.0 mm 0.00 in0.0 mm 0.04 in1.0 mm
09:45 AM 43.1°F6.2°C 47.0°F8.3°C 91% Calm Calm -- 30.10 in1019.3 mb 0.00 in0.0 mm 0.00 in0.0 mm 0.04 in1.0 mm
09:48 AM 43.3°F6.3°C 47.0°F8.3°C 90% Calm Calm -- 30.09 in1019.0 mb 0.00 in0.0 mm 0.00 in0.0 mm 0.04 in1.0 mm
09:51 AM 43.3°F6.3°C 47.1°F8.4°C 91% Calm Calm -- 30.10 in1019.3 mb 0.00 in0.0 mm 0.00 in0.0 mm 0.04 in1.0 mm
09:54 AM 43.1°F6.2°C 47.2°F8.4°C 91% Calm Calm -- 30.10 in1019.3 mb 0.00 in0.0 mm 0.00 in0.0 mm 0.04 in1.0 mm
09:57 AM 43.1°F6.2°C 47.3°F8.5°C 91% Calm Calm -- 30.10 in1019.3 mb 0.00 in0.0 mm 0.00 in0.0 mm 0.04 in1.0 mm
10:00 AM 43.3°F6.3°C 47.1°F8.4°C 90% 0.8 mph SW1.3 kmh SW 0.8 mph1.3 kmh 30.10 in1019.3 mb 0.00 in0.0 mm 0.00 in0.0 mm 0.04 in1.0 mm
10:03 AM 43.3°F6.3°C 47.4°F8.6°C 91% Calm Calm -- 30.10 in1019.3 mb 0.00 in0.0 mm 0.00 in0.0 mm 0.04 in1.0 mm
10:06 AM 43.3°F6.3°C 47.2°F8.4°C 91% Calm Calm -- 30.10 in1019.3 mb 0.00 in0.0 mm 0.00 in0.0 mm 0.04 in1.0 mm
10:09 AM 43.4°F6.3°C 47.3°F8.5°C 91% 1.2 mph NNW1.9 kmh NNW 1.2 mph1.9 kmh 30.10 in1019.3 mb 0.00 in0.0 mm 0.00 in0.0 mm 0.04 in1.0 mm
10:12 AM 43.4°F6.3°C 47.2°F8.4°C 90% Calm Calm -- 30.10 in1019.3 mb 0.00 in0.0 mm 0.00 in0.0 mm 0.04 in1.0 mm
10:15 AM 43.5°F6.4°C 47.4°F8.6°C 91% Calm Calm -- 30.10 in1019.3 mb 0.00 in0.0 mm 0.00 in0.0 mm 0.04 in1.0 mm
10:18 AM 43.6°F6.4°C 47.5°F8.6°C 91% Calm Calm -- 30.10 in1019.3 mb 0.00 in0.0 mm 0.00 in0.0 mm 0.04 in1.0 mm
10:21 AM 43.6°F6.4°C 47.5°F8.6°C 91% Calm Calm -- 30.10 in1019.3 mb 0.00 in0.0 mm 0.00 in0.0 mm 0.04 in1.0 mm
10:24 AM 43.7°F6.5°C 47.5°F8.6°C 91% Calm Calm -- 30.10 in1019.3 mb 0.00 in0.0 mm 0.00 in0.0 mm 0.04 in1.0 mm
10:27 AM 43.7°F6.5°C 47.7°F8.7°C 91% Calm Calm -- 30.10 in1019.3 mb 0.00 in0.0 mm 0.00 in0.0 mm 0.04 in1.0 mm
10:30 AM 43.8°F6.6°C 47.4°F8.6°C 91% Calm Calm -- 30.10 in1019.3 mb 0.00 in0.0 mm 0.00 in0.0 mm 0.04 in1.0 mm
10:33 AM 43.8°F6.6°C 47.5°F8.6°C 91% Calm Calm -- 30.10 in1019.3 mb 0.00 in0.0 mm 0.00 in0.0 mm 0.04 in1.0 mm
10:36 AM 43.9°F6.6°C 47.4°F8.6°C 91% Calm Calm -- 30.10 in1019.3 mb 0.00 in0.0 mm 0.00 in0.0 mm 0.04 in1.0 mm
10:39 AM 44.0°F6.7°C 47.7°F8.7°C 91% Calm Calm -- 30.10 in1019.3 mb 0.00 in0.0 mm 0.00 in0.0 mm 0.04 in1.0 mm
10:42 AM 43.9°F6.6°C 47.7°F8.7°C 91% Calm Calm -- 30.10 in1019.3 mb 0.00 in0.0 mm 0.00 in0.0 mm 0.04 in1.0 mm
10:45 AM 44.0°F6.7°C 47.7°F8.7°C 91% Calm Calm -- 30.10 in1019.3 mb 0.00 in0.0 mm 0.00 in0.0 mm 0.04 in1.0 mm
10:48 AM 43.9°F6.6°C 47.7°F8.7°C 91% 0.4 mph NNW0.6 kmh NNW 0.4 mph0.6 kmh 30.10 in1019.3 mb 0.00 in0.0 mm 0.00 in0.0 mm 0.04 in1.0 mm
10:51 AM 44.0°F6.7°C 47.7°F8.7°C 91% 0.4 mph NNW0.6 kmh NNW 0.4 mph0.6 kmh 30.10 in1019.3 mb 0.00 in0.0 mm 0.00 in0.0 mm 0.04 in1.0 mm
10:54 AM 44.0°F6.7°C 47.7°F8.7°C 91% 1.6 mph WSW2.6 kmh WSW 1.6 mph2.6 kmh 30.10 in1019.3 mb 0.00 in0.0 mm 0.00 in0.0 mm 0.04 in1.0 mm
10:57 AM 44.2°F6.8°C 47.7°F8.7°C 91% Calm Calm -- 30.10 in1019.3 mb 0.00 in0.0 mm 0.00 in0.0 mm 0.04 in1.0 mm
11:00 AM 44.4°F6.9°C 47.8°F8.8°C 91% 1.2 mph NNW1.9 kmh NNW 1.2 mph1.9 kmh 30.10 in1019.3 mb 0.00 in0.0 mm 0.00 in0.0 mm 0.04 in1.0 mm
11:03 AM 44.5°F6.9°C 47.9°F8.8°C 91% 0.4 mph WNW0.6 kmh WNW 0.4 mph0.6 kmh 30.10 in1019.3 mb 0.00 in0.0 mm 0.00 in0.0 mm 0.04 in1.0 mm
11:06 AM 44.4°F6.9°C 48.0°F8.9°C 91% Calm Calm -- 30.10 in1019.3 mb 0.00 in0.0 mm 0.00 in0.0 mm 0.04 in1.0 mm
11:09 AM 44.6°F7.0°C 47.9°F8.8°C 91% Calm Calm -- 30.10 in1019.3 mb 0.00 in0.0 mm 0.00 in0.0 mm 0.04 in1.0 mm
11:12 AM 44.7°F7.1°C 48.2°F9.0°C 91% Calm Calm -- 30.10 in1019.3 mb 0.00 in0.0 mm 0.00 in0.0 mm 0.04 in1.0 mm
11:15 AM 44.5°F6.9°C 47.8°F8.8°C 91% Calm Calm -- 30.10 in1019.3 mb 0.00 in0.0 mm 0.00 in0.0 mm 0.04 in1.0 mm
11:18 AM 44.6°F7.0°C 48.2°F9.0°C 91% Calm Calm -- 30.10 in1019.3 mb 0.00 in0.0 mm 0.00 in0.0 mm 0.04 in1.0 mm
11:21 AM 44.8°F7.1°C 48.1°F8.9°C 91% Calm Calm -- 30.10 in1019.3 mb 0.00 in0.0 mm 0.00 in0.0 mm 0.04 in1.0 mm
11:24 AM 44.8°F7.1°C 48.1°F8.9°C 91% Calm Calm -- 30.10 in1019.3 mb 0.00 in0.0 mm 0.00 in0.0 mm 0.04 in1.0 mm
11:27 AM 44.8°F7.1°C 48.2°F9.0°C 91% Calm Calm -- 30.10 in1019.3 mb 0.00 in0.0 mm 0.00 in0.0 mm 0.04 in1.0 mm
11:30 AM 44.9°F7.2°C 48.0°F8.9°C 90% Calm Calm -- 30.10 in1019.3 mb 0.00 in0.0 mm 0.00 in0.0 mm 0.04 in1.0 mm
11:33 AM 44.8°F7.1°C 48.3°F9.1°C 91% Calm Calm -- 30.10 in1019.3 mb 0.00 in0.0 mm 0.00 in0.0 mm 0.04 in1.0 mm
11:36 AM 44.8°F7.1°C 48.1°F8.9°C 91% Calm Calm -- 30.10 in1019.3 mb 0.00 in0.0 mm 0.00 in0.0 mm 0.04 in1.0 mm
11:39 AM 44.8°F7.1°C 48.2°F9.0°C 91% Calm Calm -- 30.10 in1019.3 mb 0.00 in0.0 mm 0.00 in0.0 mm 0.04 in1.0 mm
11:42 AM 45.3°F7.4°C 48.4°F9.1°C 90% Calm Calm -- 30.10 in1019.3 mb 0.00 in0.0 mm 0.00 in0.0 mm 0.04 in1.0 mm
11:45 AM 45.3°F7.4°C 48.3°F9.1°C 91% Calm Calm -- 30.10 in1019.3 mb 0.00 in0.0 mm 0.00 in0.0 mm 0.04 in1.0 mm
11:48 AM 45.2°F7.3°C 48.4°F9.1°C 91% 0.8 mph NNW1.3 kmh NNW 0.8 mph1.3 kmh 30.10 in1019.3 mb 0.00 in0.0 mm 0.00 in0.0 mm 0.04 in1.0 mm
11:51 AM 45.2°F7.3°C 48.4°F9.1°C 90% Calm Calm -- 30.10 in1019.3 mb 0.00 in0.0 mm 0.00 in0.0 mm 0.04 in1.0 mm
11:54 AM 45.5°F7.5°C 48.1°F8.9°C 90% 0.8 mph SSW1.3 kmh SSW 0.8 mph1.3 kmh 30.09 in1019.0 mb 0.00 in0.0 mm 0.00 in0.0 mm 0.04 in1.0 mm
11:57 AM 45.3°F7.4°C 48.4°F9.1°C 91% 1.6 mph NNW2.6 kmh NNW 1.6 mph2.6 kmh 30.09 in1019.0 mb 0.00 in0.0 mm 0.00 in0.0 mm 0.04 in1.0 mm
12:00 PM 45.6°F7.6°C 48.4°F9.1°C 90% 1.9 mph NNW3.1 kmh NNW 1.9 mph3.1 kmh 30.09 in1019.0 mb 0.00 in0.0 mm 0.00 in0.0 mm 0.04 in1.0 mm
12:03 PM 45.6°F7.6°C 48.5°F9.2°C 90% 1.2 mph SW1.9 kmh SW 1.2 mph1.9 kmh 30.08 in1018.6 mb 0.00 in0.0 mm 0.00 in0.0 mm 0.04 in1.0 mm
12:06 PM 46.1°F7.8°C 48.7°F9.3°C 91% 1.2 mph NNW1.9 kmh NNW 1.2 mph1.9 kmh 30.08 in1018.6 mb 0.00 in0.0 mm 0.00 in0.0 mm 0.04 in1.0 mm
12:09 PM 46.2°F7.9°C 48.8°F9.3°C 91% 2.0 mph SW3.2 kmh SW 2.0 mph3.2 kmh 30.08 in1018.6 mb 0.00 in0.0 mm 0.00 in0.0 mm 0.04 in1.0 mm
12:12 PM 46.7°F8.2°C 48.9°F9.4°C 91% 0.4 mph W0.6 kmh W 0.4 mph0.6 kmh 30.08 in1018.6 mb 0.00 in0.0 mm 0.00 in0.0 mm 0.04 in1.0 mm
12:15 PM 46.6°F8.1°C 48.7°F9.3°C 90% Calm Calm -- 30.09 in1019.0 mb 0.00 in0.0 mm 0.00 in0.0 mm 0.04 in1.0 mm
12:18 PM 47.0°F8.3°C 48.9°F9.4°C 90% Calm Calm -- 30.09 in1019.0 mb 0.00 in0.0 mm 0.00 in0.0 mm 0.04 in1.0 mm
12:21 PM 46.5°F8.1°C 49.0°F9.4°C 91% 0.8 mph W1.3 kmh W 0.8 mph1.3 kmh 30.09 in1019.0 mb 0.00 in0.0 mm 0.00 in0.0 mm 0.04 in1.0 mm
12:24 PM 46.5°F8.1°C 48.8°F9.3°C 90% 2.4 mph SW3.9 kmh SW 2.4 mph3.9 kmh 30.09 in1019.0 mb 0.00 in0.0 mm 0.00 in0.0 mm 0.04 in1.0 mm
12:27 PM 47.3°F8.5°C 48.9°F9.4°C 90% 2.0 mph W3.2 kmh W 2.0 mph3.2 kmh 30.09 in1019.0 mb 0.00 in0.0 mm 0.00 in0.0 mm 0.04 in1.0 mm
12:30 PM 47.3°F8.5°C 49.0°F9.4°C 90% 0.8 mph WSW1.3 kmh WSW 0.8 mph1.3 kmh 30.09 in1019.0 mb 0.00 in0.0 mm 0.00 in0.0 mm 0.04 in1.0 mm
12:33 PM 47.5°F8.6°C 49.3°F9.6°C 90% 2.4 mph WSW3.9 kmh WSW 2.4 mph3.9 kmh 30.09 in1019.0 mb 0.00 in0.0 mm 0.00 in0.0 mm 0.04 in1.0 mm
12:36 PM 47.8°F8.8°C 49.3°F9.6°C 90% Calm Calm -- 30.09 in1019.0 mb 0.00 in0.0 mm 0.00 in0.0 mm 0.04 in1.0 mm
12:39 PM 47.5°F8.6°C 49.1°F9.5°C 89% 1.6 mph NNW2.6 kmh NNW 1.6 mph2.6 kmh 30.10 in1019.3 mb 0.00 in0.0 mm 0.00 in0.0 mm 0.04 in1.0 mm
12:42 PM 47.0°F8.3°C 49.2°F9.6°C 89% 2.0 mph W3.2 kmh W 2.0 mph3.2 kmh 30.09 in1019.0 mb 0.00 in0.0 mm 0.00 in0.0 mm 0.04 in1.0 mm
12:45 PM 46.4°F8.0°C 49.2°F9.6°C 89% 2.4 mph W3.9 kmh W 2.4 mph3.9 kmh 30.09 in1019.0 mb 0.00 in0.0 mm 0.00 in0.0 mm 0.04 in1.0 mm
12:48 PM 46.2°F7.9°C 48.6°F9.2°C 87% 0.8 mph W1.3 kmh W 0.8 mph1.3 kmh 30.09 in1019.0 mb 0.00 in0.0 mm 0.00 in0.0 mm 0.04 in1.0 mm
12:51 PM 46.5°F8.1°C 49.1°F9.5°C 89% 2.0 mph W3.2 kmh W 2.0 mph3.2 kmh 30.08 in1018.6 mb 0.00 in0.0 mm 0.00 in0.0 mm 0.04 in1.0 mm
12:54 PM 46.1°F7.8°C 48.9°F9.4°C 88% 2.8 mph W4.5 kmh W 2.8 mph4.5 kmh 30.09 in1019.0 mb 0.00 in0.0 mm 0.00 in0.0 mm 0.04 in1.0 mm
12:57 PM 46.1°F7.8°C 48.8°F9.3°C 88% 1.6 mph W2.6 kmh W 1.6 mph2.6 kmh 30.08 in1018.6 mb 0.00 in0.0 mm 0.00 in0.0 mm 0.04 in1.0 mm
01:00 PM 46.0°F7.8°C 48.7°F9.3°C 88% 2.4 mph W3.9 kmh W 2.4 mph3.9 kmh 30.08 in1018.6 mb 0.00 in0.0 mm 0.00 in0.0 mm 0.04 in1.0 mm
01:03 PM 45.8°F7.7°C 48.7°F9.3°C 88% 1.2 mph NNW1.9 kmh NNW 1.2 mph1.9 kmh 30.08 in1018.6 mb 0.00 in0.0 mm 0.00 in0.0 mm 0.04 in1.0 mm
01:06 PM 45.8°F7.7°C 48.8°F9.3°C 88% Calm Calm -- 30.08 in1018.6 mb 0.00 in0.0 mm 0.00 in0.0 mm 0.04 in1.0 mm
01:09 PM 45.5°F7.5°C 48.7°F9.3°C 88% 2.8 mph W4.5 kmh W 2.9 mph4.7 kmh 30.09 in1019.0 mb 0.00 in0.0 mm 0.00 in0.0 mm 0.04 in1.0 mm
01:12 PM 45.3°F7.4°C 48.5°F9.2°C 88% 1.2 mph WNW1.9 kmh WNW 1.2 mph1.9 kmh 30.09 in1019.0 mb 0.00 in0.0 mm 0.00 in0.0 mm 0.04 in1.0 mm
01:15 PM 45.3°F7.4°C 48.5°F9.2°C 88% Calm Calm -- 30.08 in1018.6 mb 0.00 in0.0 mm 0.00 in0.0 mm 0.04 in1.0 mm
01:18 PM 45.2°F7.3°C 48.3°F9.1°C 88% 2.0 mph W3.2 kmh W 2.0 mph3.2 kmh 30.09 in1019.0 mb 0.00 in0.0 mm 0.00 in0.0 mm 0.04 in1.0 mm
01:21 PM 45.2°F7.3°C 48.2°F9.0°C 87% 0.4 mph SW0.6 kmh SW 0.4 mph0.6 kmh 30.08 in1018.6 mb 0.00 in0.0 mm 0.00 in0.0 mm 0.04 in1.0 mm
01:24 PM 45.2°F7.3°C 48.2°F9.0°C 87% 1.2 mph W1.9 kmh W 1.2 mph1.9 kmh 30.08 in1018.6 mb 0.00 in0.0 mm 0.00 in0.0 mm 0.04 in1.0 mm
01:27 PM 45.5°F7.5°C 48.2°F9.0°C 87% 2.0 mph WNW3.2 kmh WNW 2.0 mph3.2 kmh 30.08 in1018.6 mb 0.00 in0.0 mm 0.00 in0.0 mm 0.04 in1.0 mm
01:30 PM 45.5°F7.5°C 48.1°F8.9°C 87% 0.8 mph SW1.3 kmh SW 0.8 mph1.3 kmh 30.08 in1018.6 mb 0.00 in0.0 mm 0.00 in0.0 mm 0.04 in1.0 mm
01:33 PM 45.6°F7.6°C 48.0°F8.9°C 87% 1.6 mph SW2.6 kmh SW 1.6 mph2.6 kmh 30.08 in1018.6 mb 0.00 in0.0 mm 0.00 in0.0 mm 0.04 in1.0 mm
01:39 PM 45.7°F7.6°C 48.5°F9.2°C 88% 1.2 mph NNW1.9 kmh NNW 1.2 mph1.9 kmh 30.08 in1018.6 mb 0.00 in0.0 mm 0.00 in0.0 mm 0.04 in1.0 mm
01:42 PM 45.8°F7.7°C 48.3°F9.1°C 87% 1.2 mph SSW1.9 kmh SSW 1.2 mph1.9 kmh 30.08 in1018.6 mb 0.00 in0.0 mm 0.00 in0.0 mm 0.04 in1.0 mm
01:45 PM 45.7°F7.6°C 48.6°F9.2°C 87% 1.2 mph SW1.9 kmh SW 1.2 mph1.9 kmh 30.08 in1018.6 mb 0.00 in0.0 mm 0.00 in0.0 mm 0.04 in1.0 mm
01:48 PM 45.7°F7.6°C 48.4°F9.1°C 87% Calm Calm -- 30.08 in1018.6 mb 0.00 in0.0 mm 0.00 in0.0 mm 0.04 in1.0 mm
01:51 PM 45.7°F7.6°C 48.6°F9.2°C 87% Calm Calm -- 30.08 in1018.6 mb 0.00 in0.0 mm 0.00 in0.0 mm 0.04 in1.0 mm
01:54 PM 45.8°F7.7°C 48.2°F9.0°C 87% 1.2 mph WNW1.9 kmh WNW 1.2 mph1.9 kmh 30.08 in1018.6 mb 0.00 in0.0 mm 0.00 in0.0 mm 0.04 in1.0 mm
01:57 PM 45.8°F7.7°C 48.7°F9.3°C 87% 0.4 mph NNW0.6 kmh NNW 0.4 mph0.6 kmh 30.08 in1018.6 mb 0.00 in0.0 mm 0.00 in0.0 mm 0.04 in1.0 mm
02:00 PM 45.8°F7.7°C 48.5°F9.2°C 87% Calm Calm -- 30.08 in1018.6 mb 0.00 in0.0 mm 0.00 in0.0 mm 0.04 in1.0 mm
02:03 PM 46.0°F7.8°C 48.5°F9.2°C 87% 1.2 mph NNW1.9 kmh NNW 1.2 mph1.9 kmh 30.08 in1018.6 mb 0.00 in0.0 mm 0.00 in0.0 mm 0.04 in1.0 mm
02:06 PM 46.0°F7.8°C 48.7°F9.3°C 88% Calm Calm -- 30.08 in1018.6 mb 0.00 in0.0 mm 0.00 in0.0 mm 0.04 in1.0 mm
02:09 PM 46.1°F7.8°C 48.3°F9.1°C 86% 1.2 mph WNW1.9 kmh WNW 1.2 mph1.9 kmh 30.08 in1018.6 mb 0.00 in0.0 mm 0.00 in0.0 mm 0.04 in1.0 mm
02:12 PM 46.1°F7.8°C 48.6°F9.2°C 87% 0.4 mph WNW0.6 kmh WNW 0.4 mph0.6 kmh 30.08 in1018.6 mb 0.00 in0.0 mm 0.00 in0.0 mm 0.04 in1.0 mm
02:15 PM 46.0°F7.8°C 48.6°F9.2°C 87% 1.6 mph WNW2.6 kmh WNW 1.6 mph2.6 kmh 30.08 in1018.6 mb 0.00 in0.0 mm 0.00 in0.0 mm 0.04 in1.0 mm
02:18 PM 46.0°F7.8°C 48.8°F9.3°C 87% 1.6 mph NNW2.6 kmh NNW 1.6 mph2.6 kmh 30.08 in1018.6 mb 0.00 in0.0 mm 0.00 in0.0 mm 0.04 in1.0 mm
02:21 PM 45.8°F7.7°C 48.6°F9.2°C 87% 2.0 mph NW3.2 kmh NW 2.0 mph3.2 kmh 30.08 in1018.6 mb 0.00 in0.0 mm 0.00 in0.0 mm 0.04 in1.0 mm
02:24 PM 45.8°F7.7°C 48.6°F9.2°C 87% 3.2 mph NW5.1 kmh NW 3.2 mph5.1 kmh 30.08 in1018.6 mb 0.00 in0.0 mm 0.00 in0.0 mm 0.04 in1.0 mm
02:27 PM 45.8°F7.7°C 48.1°F8.9°C 86% 1.2 mph W1.9 kmh W 1.2 mph1.9 kmh 30.09 in1019.0 mb 0.00 in0.0 mm 0.00 in0.0 mm 0.04 in1.0 mm
02:30 PM 45.7°F7.6°C 48.5°F9.2°C 87% 1.6 mph NNW2.6 kmh NNW 1.6 mph2.6 kmh 30.08 in1018.6 mb 0.00 in0.0 mm 0.00 in0.0 mm 0.04 in1.0 mm
02:33 PM 45.7°F7.6°C 48.5°F9.2°C 87% 2.0 mph NW3.2 kmh NW 2.0 mph3.2 kmh 30.09 in1019.0 mb 0.00 in0.0 mm 0.00 in0.0 mm 0.04 in1.0 mm
02:36 PM 45.6°F7.6°C 48.1°F8.9°C 86% 0.8 mph W1.3 kmh W 0.8 mph1.3 kmh 30.09 in1019.0 mb 0.00 in0.0 mm 0.00 in0.0 mm 0.04 in1.0 mm
02:39 PM 45.5°F7.5°C 48.4°F9.1°C 87% 2.4 mph NW3.9 kmh NW 2.4 mph3.9 kmh 30.08 in1018.6 mb 0.00 in0.0 mm 0.00 in0.0 mm 0.04 in1.0 mm
02:42 PM 45.5°F7.5°C 48.4°F9.1°C 87% 0.8 mph NW1.3 kmh NW 0.8 mph1.3 kmh 30.09 in1019.0 mb 0.00 in0.0 mm 0.00 in0.0 mm 0.04 in1.0 mm
02:45 PM 45.6°F7.6°C 48.5°F9.2°C 87% 1.2 mph NNW1.9 kmh NNW 1.2 mph1.9 kmh 30.09 in1019.0 mb 0.00 in0.0 mm 0.00 in0.0 mm 0.04 in1.0 mm
02:48 PM 45.4°F7.4°C 48.4°F9.1°C 87% 6.4 mph NNW10.3 kmh NNW 6.5 mph10.5 kmh 30.09 in1019.0 mb 0.00 in0.0 mm 0.00 in0.0 mm 0.04 in1.0 mm
02:51 PM 45.3°F7.4°C 48.2°F9.0°C 87% 2.0 mph WNW3.2 kmh WNW 2.0 mph3.2 kmh 30.09 in1019.0 mb 0.00 in0.0 mm 0.00 in0.0 mm 0.04 in1.0 mm
02:54 PM 45.3°F7.4°C 48.2°F9.0°C 87% 1.2 mph NW1.9 kmh NW 1.2 mph1.9 kmh 30.09 in1019.0 mb 0.00 in0.0 mm 0.00 in0.0 mm 0.04 in1.0 mm
02:57 PM 45.3°F7.4°C 48.4°F9.1°C 87% 1.6 mph NNW2.6 kmh NNW 1.6 mph2.6 kmh 30.09 in1019.0 mb 0.00 in0.0 mm 0.00 in0.0 mm 0.04 in1.0 mm
03:03 PM 45.2°F7.3°C 48.2°F9.0°C 87% Calm Calm -- 30.09 in1019.0 mb 0.00 in0.0 mm 0.00 in0.0 mm 0.04 in1.0 mm
03:06 PM 45.2°F7.3°C 48.0°F8.9°C 86% 1.2 mph NW1.9 kmh NW 1.2 mph1.9 kmh 30.10 in1019.3 mb 0.00 in0.0 mm 0.00 in0.0 mm 0.04 in1.0 mm
03:09 PM 45.2°F7.3°C 48.1°F8.9°C 86% 2.4 mph NW3.9 kmh NW 2.4 mph3.9 kmh 30.10 in1019.3 mb 0.00 in0.0 mm 0.00 in0.0 mm 0.04 in1.0 mm
03:12 PM 45.2°F7.3°C 48.2°F9.0°C 86% 1.2 mph NW1.9 kmh NW 1.2 mph1.9 kmh 30.09 in1019.0 mb 0.00 in0.0 mm 0.00 in0.0 mm 0.04 in1.0 mm
03:15 PM 44.9°F7.2°C 48.0°F8.9°C 86% Calm Calm -- 30.09 in1019.0 mb 0.00 in0.0 mm 0.00 in0.0 mm 0.04 in1.0 mm
03:18 PM 45.1°F7.3°C 48.3°F9.1°C 87% Calm Calm -- 30.09 in1019.0 mb 0.00 in0.0 mm 0.00 in0.0 mm 0.04 in1.0 mm
03:21 PM 44.8°F7.1°C 48.0°F8.9°C 86% 2.4 mph NNW3.9 kmh NNW 2.4 mph3.9 kmh 30.09 in1019.0 mb 0.00 in0.0 mm 0.00 in0.0 mm 0.04 in1.0 mm
03:24 PM 45.1°F7.3°C 48.0°F8.9°C 87% Calm Calm -- 30.09 in1019.0 mb 0.00 in0.0 mm 0.00 in0.0 mm 0.04 in1.0 mm
03:27 PM 45.1°F7.3°C 47.9°F8.8°C 86% Calm Calm -- 30.09 in1019.0 mb 0.00 in0.0 mm 0.00 in0.0 mm 0.04 in1.0 mm
03:30 PM 45.1°F7.3°C 47.7°F8.7°C 85% 1.6 mph WNW2.6 kmh WNW 1.6 mph2.6 kmh 30.09 in1019.0 mb 0.00 in0.0 mm 0.00 in0.0 mm 0.04 in1.0 mm
03:33 PM 45.1°F7.3°C 48.2°F9.0°C 87% Calm Calm -- 30.08 in1018.6 mb 0.00 in0.0 mm 0.00 in0.0 mm 0.04 in1.0 mm
03:36 PM 44.9°F7.2°C 47.9°F8.8°C 87% Calm Calm -- 30.08 in1018.6 mb 0.00 in0.0 mm 0.00 in0.0 mm 0.04 in1.0 mm
03:39 PM 45.1°F7.3°C 48.1°F8.9°C 87% Calm Calm -- 30.09 in1019.0 mb 0.00 in0.0 mm 0.00 in0.0 mm 0.04 in1.0 mm
03:42 PM 45.1°F7.3°C 47.8°F8.8°C 86% Calm Calm -- 30.09 in1019.0 mb 0.00 in0.0 mm 0.00 in0.0 mm 0.04 in1.0 mm
03:45 PM 45.1°F7.3°C 47.9°F8.8°C 86% 0.4 mph NW0.6 kmh NW 0.4 mph0.6 kmh 30.09 in1019.0 mb 0.00 in0.0 mm 0.00 in0.0 mm 0.04 in1.0 mm
03:51 PM 44.8°F7.1°C 48.0°F8.9°C 86% Calm Calm -- 30.09 in1019.0 mb 0.00 in0.0 mm 0.00 in0.0 mm 0.04 in1.0 mm
03:54 PM 44.7°F7.1°C 47.7°F8.7°C 85% 0.8 mph NNW1.3 kmh NNW 0.8 mph1.3 kmh 30.09 in1019.0 mb 0.00 in0.0 mm 0.00 in0.0 mm 0.04 in1.0 mm
03:57 PM 44.7°F7.1°C 47.9°F8.8°C 87% 0.4 mph W0.6 kmh W 0.4 mph0.6 kmh 30.10 in1019.3 mb 0.00 in0.0 mm 0.00 in0.0 mm 0.04 in1.0 mm
04:00 PM 44.7°F7.1°C 47.4°F8.6°C 85% Calm Calm -- 30.10 in1019.3 mb 0.00 in0.0 mm 0.00 in0.0 mm 0.04 in1.0 mm
04:03 PM 44.7°F7.1°C 47.8°F8.8°C 86% Calm Calm -- 30.10 in1019.3 mb 0.00 in0.0 mm 0.00 in0.0 mm 0.04 in1.0 mm
04:06 PM 44.6°F7.0°C 47.8°F8.8°C 86% Calm Calm -- 30.10 in1019.3 mb 0.00 in0.0 mm 0.00 in0.0 mm 0.04 in1.0 mm
04:09 PM 44.5°F6.9°C 47.9°F8.8°C 86% Calm Calm -- 30.10 in1019.3 mb 0.00 in0.0 mm 0.00 in0.0 mm 0.04 in1.0 mm
04:12 PM 44.5°F6.9°C 47.8°F8.8°C 86% Calm Calm -- 30.10 in1019.3 mb 0.00 in0.0 mm 0.00 in0.0 mm 0.04 in1.0 mm
04:15 PM 44.5°F6.9°C 47.7°F8.7°C 86% Calm Calm -- 30.10 in1019.3 mb 0.00 in0.0 mm 0.00 in0.0 mm 0.04 in1.0 mm
04:18 PM 44.4°F6.9°C 47.8°F8.8°C 86% Calm Calm -- 30.10 in1019.3 mb 0.00 in0.0 mm 0.00 in0.0 mm 0.04 in1.0 mm
04:21 PM 44.4°F6.9°C 47.9°F8.8°C 87% Calm Calm -- 30.10 in1019.3 mb 0.00 in0.0 mm 0.00 in0.0 mm 0.04 in1.0 mm
04:24 PM 44.3°F6.8°C 47.8°F8.8°C 87% Calm Calm -- 30.10 in1019.3 mb 0.00 in0.0 mm 0.00 in0.0 mm 0.04 in1.0 mm
04:27 PM 44.3°F6.8°C 47.5°F8.6°C 86% Calm Calm -- 30.10 in1019.3 mb 0.00 in0.0 mm 0.00 in0.0 mm 0.04 in1.0 mm
04:30 PM 44.3°F6.8°C 47.7°F8.7°C 86% Calm Calm -- 30.10 in1019.3 mb 0.00 in0.0 mm 0.00 in0.0 mm 0.04 in1.0 mm
04:33 PM 44.3°F6.8°C 47.8°F8.8°C 87% Calm Calm -- 30.10 in1019.3 mb 0.00 in0.0 mm 0.00 in0.0 mm 0.04 in1.0 mm
04:36 PM 44.3°F6.8°C 47.8°F8.8°C 87% Calm Calm -- 30.10 in1019.3 mb 0.00 in0.0 mm 0.00 in0.0 mm 0.04 in1.0 mm
04:39 PM 44.2°F6.8°C 47.2°F8.4°C 85% 1.2 mph W1.9 kmh W 1.2 mph1.9 kmh 30.10 in1019.3 mb 0.00 in0.0 mm 0.00 in0.0 mm 0.04 in1.0 mm
04:42 PM 44.2°F6.8°C 47.6°F8.7°C 86% 0.4 mph NNW0.6 kmh NNW 0.4 mph0.6 kmh 30.10 in1019.3 mb 0.00 in0.0 mm 0.00 in0.0 mm 0.04 in1.0 mm
04:45 PM 44.2°F6.8°C 47.6°F8.7°C 87% 2.0 mph WSW3.2 kmh WSW 2.0 mph3.2 kmh 30.10 in1019.3 mb 0.00 in0.0 mm 0.00 in0.0 mm 0.04 in1.0 mm
04:48 PM 44.2°F6.8°C 47.5°F8.6°C 87% 2.0 mph W3.2 kmh W 2.0 mph3.2 kmh 30.10 in1019.3 mb 0.00 in0.0 mm 0.00 in0.0 mm 0.04 in1.0 mm
04:51 PM 44.0°F6.7°C 47.5°F8.6°C 87% Calm Calm -- 30.11 in1019.6 mb 0.00 in0.0 mm 0.00 in0.0 mm 0.04 in1.0 mm
04:54 PM 44.0°F6.7°C 47.5°F8.6°C 86% 2.0 mph W3.2 kmh W 2.0 mph3.2 kmh 30.10 in1019.3 mb 0.00 in0.0 mm 0.00 in0.0 mm 0.04 in1.0 mm
04:57 PM 43.9°F6.6°C 47.5°F8.6°C 87% 1.2 mph W1.9 kmh W 1.2 mph1.9 kmh 30.10 in1019.3 mb 0.00 in0.0 mm 0.00 in0.0 mm 0.04 in1.0 mm
05:00 PM 43.9°F6.6°C 47.4°F8.6°C 86% 2.0 mph WSW3.2 kmh WSW 2.0 mph3.2 kmh 30.10 in1019.3 mb 0.00 in0.0 mm 0.00 in0.0 mm 0.04 in1.0 mm
05:03 PM 43.9°F6.6°C 47.6°F8.7°C 87% Calm Calm -- 30.10 in1019.3 mb 0.00 in0.0 mm 0.00 in0.0 mm 0.04 in1.0 mm
05:06 PM 43.9°F6.6°C 47.4°F8.6°C 87% 0.8 mph W1.3 kmh W 0.8 mph1.3 kmh 30.11 in1019.6 mb 0.00 in0.0 mm 0.00 in0.0 mm 0.04 in1.0 mm
05:09 PM 43.9°F6.6°C 47.4°F8.6°C 86% Calm Calm -- 30.10 in1019.3 mb 0.00 in0.0 mm 0.00 in0.0 mm 0.04 in1.0 mm
05:12 PM 43.8°F6.6°C 47.5°F8.6°C 87% Calm Calm -- 30.11 in1019.6 mb 0.00 in0.0 mm 0.00 in0.0 mm 0.04 in1.0 mm
05:15 PM 43.9°F6.6°C 47.4°F8.6°C 87% 1.6 mph WNW2.6 kmh WNW 1.6 mph2.6 kmh 30.11 in1019.6 mb 0.00 in0.0 mm 0.00 in0.0 mm 0.04 in1.0 mm
05:18 PM 43.9°F6.6°C 47.4°F8.6°C 87% Calm Calm -- 30.11 in1019.6 mb 0.00 in0.0 mm 0.00 in0.0 mm 0.04 in1.0 mm
05:24 PM 43.9°F6.6°C 47.5°F8.6°C 87% Calm Calm -- 30.11 in1019.6 mb 0.00 in0.0 mm 0.00 in0.0 mm 0.04 in1.0 mm
05:27 PM 43.9°F6.6°C 47.5°F8.6°C 87% Calm Calm -- 30.11 in1019.6 mb 0.00 in0.0 mm 0.00 in0.0 mm 0.04 in1.0 mm
05:30 PM 43.8°F6.6°C 47.6°F8.7°C 87% Calm Calm -- 30.11 in1019.6 mb 0.00 in0.0 mm 0.00 in0.0 mm 0.04 in1.0 mm
05:33 PM 43.8°F6.6°C 47.6°F8.7°C 87% Calm Calm -- 30.11 in1019.6 mb 0.00 in0.0 mm 0.00 in0.0 mm 0.04 in1.0 mm
05:36 PM 43.8°F6.6°C 47.6°F8.7°C 87% Calm Calm -- 30.11 in1019.6 mb 0.00 in0.0 mm 0.00 in0.0 mm 0.04 in1.0 mm
05:41 PM 43.9°F6.6°C 47.5°F8.6°C 87% Calm Calm -- 30.11 in1019.6 mb 0.00 in0.0 mm 0.00 in0.0 mm 0.04 in1.0 mm
05:43 PM 43.9°F6.6°C 47.5°F8.6°C 87% Calm Calm -- 30.11 in1019.6 mb 0.00 in0.0 mm 0.00 in0.0 mm 0.04 in1.0 mm
05:44 PM 43.9°F6.6°C 47.5°F8.6°C 87% Calm Calm -- 30.11 in1019.6 mb 0.00 in0.0 mm 0.00 in0.0 mm 0.04 in1.0 mm
05:47 PM 43.9°F6.6°C 47.5°F8.6°C 87% 0.4 mph NNW0.6 kmh NNW 0.4 mph0.6 kmh 30.11 in1019.6 mb 0.00 in0.0 mm 0.00 in0.0 mm 0.04 in1.0 mm
05:50 PM 43.9°F6.6°C 47.6°F8.7°C 87% Calm Calm -- 30.11 in1019.6 mb 0.00 in0.0 mm 0.00 in0.0 mm 0.04 in1.0 mm
05:53 PM 43.9°F6.6°C 47.5°F8.6°C 87% Calm Calm -- 30.11 in1019.6 mb 0.00 in0.0 mm 0.00 in0.0 mm 0.04 in1.0 mm
05:56 PM 43.9°F6.6°C 47.4°F8.6°C 87% 1.6 mph NNW2.6 kmh NNW 1.6 mph2.6 kmh 30.12 in1020.0 mb 0.00 in0.0 mm 0.00 in0.0 mm 0.04 in1.0 mm
05:59 PM 43.9°F6.6°C 47.5°F8.6°C 87% 0.8 mph NNW1.3 kmh NNW 0.8 mph1.3 kmh 30.11 in1019.6 mb 0.00 in0.0 mm 0.00 in0.0 mm 0.04 in1.0 mm
06:02 PM 43.9°F6.6°C 47.3°F8.5°C 87% 0.8 mph NW1.3 kmh NW 0.8 mph1.3 kmh 30.12 in1020.0 mb 0.00 in0.0 mm 0.00 in0.0 mm 0.04 in1.0 mm
06:05 PM 43.9°F6.6°C 47.5°F8.6°C 87% 0.8 mph NNW1.3 kmh NNW 0.8 mph1.3 kmh 30.12 in1020.0 mb 0.00 in0.0 mm 0.00 in0.0 mm 0.04 in1.0 mm
06:08 PM 43.8°F6.6°C 47.5°F8.6°C 87% 0.8 mph NNW1.3 kmh NNW 0.8 mph1.3 kmh 30.12 in1020.0 mb 0.00 in0.0 mm 0.00 in0.0 mm 0.04 in1.0 mm
06:11 PM 43.8°F6.6°C 47.5°F8.6°C 87% Calm Calm -- 30.12 in1020.0 mb 0.00 in0.0 mm 0.00 in0.0 mm 0.04 in1.0 mm
06:14 PM 43.8°F6.6°C 47.6°F8.7°C 88% 0.4 mph NW0.6 kmh NW 0.4 mph0.6 kmh 30.13 in1020.3 mb 0.00 in0.0 mm 0.00 in0.0 mm 0.04 in1.0 mm
06:17 PM 43.9°F6.6°C 47.6°F8.7°C 88% Calm Calm -- 30.12 in1020.0 mb 0.00 in0.0 mm 0.00 in0.0 mm 0.04 in1.0 mm
06:20 PM 43.8°F6.6°C 47.5°F8.6°C 88% Calm Calm -- 30.12 in1020.0 mb 0.00 in0.0 mm 0.00 in0.0 mm 0.04 in1.0 mm
06:23 PM 43.8°F6.6°C 47.6°F8.7°C 88% 1.2 mph NNW1.9 kmh NNW 1.2 mph1.9 kmh 30.12 in1020.0 mb 0.00 in0.0 mm 0.00 in0.0 mm 0.04 in1.0 mm
06:26 PM 43.8°F6.6°C 47.4°F8.6°C 88% Calm Calm -- 30.12 in1020.0 mb 0.00 in0.0 mm 0.00 in0.0 mm 0.04 in1.0 mm
06:29 PM 43.8°F6.6°C 47.5°F8.6°C 88% 1.2 mph NW1.9 kmh NW 1.2 mph1.9 kmh 30.12 in1020.0 mb 0.00 in0.0 mm 0.00 in0.0 mm 0.04 in1.0 mm
06:32 PM 43.8°F6.6°C 47.7°F8.7°C 88% 0.4 mph NW0.6 kmh NW 0.4 mph0.6 kmh 30.12 in1020.0 mb 0.00 in0.0 mm 0.00 in0.0 mm 0.04 in1.0 mm
06:35 PM 43.7°F6.5°C 47.3°F8.5°C 88% Calm Calm -- 30.12 in1020.0 mb 0.00 in0.0 mm 0.00 in0.0 mm 0.04 in1.0 mm
06:38 PM 43.7°F6.5°C 47.5°F8.6°C 88% 1.1 mph NW1.8 kmh NW 1.2 mph1.9 kmh 30.13 in1020.3 mb 0.00 in0.0 mm 0.00 in0.0 mm 0.04 in1.0 mm
06:41 PM 43.8°F6.6°C 47.3°F8.5°C 87% Calm Calm -- 30.11 in1019.6 mb 0.00 in0.0 mm 0.00 in0.0 mm 0.04 in1.0 mm
06:44 PM 43.7°F6.5°C 47.4°F8.6°C 88% 0.8 mph NW1.3 kmh NW 0.8 mph1.3 kmh 30.12 in1020.0 mb 0.00 in0.0 mm 0.00 in0.0 mm 0.04 in1.0 mm
06:47 PM 43.8°F6.6°C 47.4°F8.6°C 88% 2.3 mph NW3.7 kmh NW 2.3 mph3.7 kmh 30.12 in1020.0 mb 0.00 in0.0 mm 0.00 in0.0 mm 0.04 in1.0 mm
06:50 PM 43.7°F6.5°C 47.2°F8.4°C 88% 0.8 mph WNW1.3 kmh WNW 0.8 mph1.3 kmh 30.12 in1020.0 mb 0.00 in0.0 mm 0.00 in0.0 mm 0.04 in1.0 mm
06:53 PM 43.7°F6.5°C 47.3°F8.5°C 88% Calm Calm -- 30.11 in1019.6 mb 0.00 in0.0 mm 0.00 in0.0 mm 0.04 in1.0 mm
06:56 PM 43.6°F6.4°C 47.3°F8.5°C 88% 1.2 mph W1.9 kmh W 1.2 mph1.9 kmh 30.11 in1019.6 mb 0.00 in0.0 mm 0.00 in0.0 mm 0.04 in1.0 mm
06:59 PM 43.6°F6.4°C 47.6°F8.7°C 88% 0.8 mph W1.3 kmh W 0.8 mph1.3 kmh 30.11 in1019.6 mb 0.00 in0.0 mm 0.00 in0.0 mm 0.04 in1.0 mm
07:02 PM 43.5°F6.4°C 47.3°F8.5°C 88% Calm Calm -- 30.11 in1019.6 mb 0.00 in0.0 mm 0.00 in0.0 mm 0.04 in1.0 mm
07:05 PM 43.5°F6.4°C 47.3°F8.5°C 87% 1.6 mph NNW2.6 kmh NNW 1.6 mph2.6 kmh 30.11 in1019.6 mb 0.00 in0.0 mm 0.00 in0.0 mm 0.04 in1.0 mm
07:08 PM 43.5°F6.4°C 47.3°F8.5°C 88% 2.3 mph W3.7 kmh W 2.4 mph3.9 kmh 30.11 in1019.6 mb 0.00 in0.0 mm 0.00 in0.0 mm 0.04 in1.0 mm
07:11 PM 43.5°F6.4°C 47.3°F8.5°C 88% Calm Calm -- 30.11 in1019.6 mb 0.00 in0.0 mm 0.00 in0.0 mm 0.04 in1.0 mm
07:14 PM 43.5°F6.4°C 47.1°F8.4°C 87% 1.2 mph WNW1.9 kmh WNW 1.2 mph1.9 kmh 30.11 in1019.6 mb 0.00 in0.0 mm 0.00 in0.0 mm 0.04 in1.0 mm
07:17 PM 43.5°F6.4°C 47.3°F8.5°C 88% 1.9 mph W3.1 kmh W 1.9 mph3.1 kmh 30.11 in1019.6 mb 0.00 in0.0 mm 0.00 in0.0 mm 0.04 in1.0 mm
07:20 PM 43.5°F6.4°C 47.4°F8.6°C 88% 1.2 mph NNW1.9 kmh NNW 1.2 mph1.9 kmh 30.11 in1019.6 mb 0.00 in0.0 mm 0.00 in0.0 mm 0.04 in1.0 mm
07:23 PM 43.4°F6.3°C 47.3°F8.5°C 88% 0.4 mph WNW0.6 kmh WNW 0.4 mph0.6 kmh 30.11 in1019.6 mb 0.00 in0.0 mm 0.00 in0.0 mm 0.04 in1.0 mm
07:26 PM 43.4°F6.3°C 47.2°F8.4°C 88% 0.8 mph NNW1.3 kmh NNW 0.8 mph1.3 kmh 30.11 in1019.6 mb 0.00 in0.0 mm 0.00 in0.0 mm 0.04 in1.0 mm
07:29 PM 43.5°F6.4°C 47.2°F8.4°C 88% 1.6 mph NNW2.6 kmh NNW 1.6 mph2.6 kmh 30.12 in1020.0 mb 0.00 in0.0 mm 0.00 in0.0 mm 0.04 in1.0 mm
07:32 PM 43.5°F6.4°C 46.9°F8.3°C 87% 1.9 mph W3.1 kmh W 2.0 mph3.2 kmh 30.12 in1020.0 mb 0.00 in0.0 mm 0.00 in0.0 mm 0.04 in1.0 mm
07:35 PM 43.5°F6.4°C 47.4°F8.6°C 88% 2.4 mph W3.9 kmh W 2.4 mph3.9 kmh 30.12 in1020.0 mb 0.00 in0.0 mm 0.00 in0.0 mm 0.04 in1.0 mm
07:38 PM 43.4°F6.3°C 47.0°F8.3°C 88% 0.8 mph W1.3 kmh W 0.8 mph1.3 kmh 30.12 in1020.0 mb 0.00 in0.0 mm 0.00 in0.0 mm 0.04 in1.0 mm
07:41 PM 43.4°F6.3°C 47.0°F8.3°C 88% 0.4 mph W0.6 kmh W 0.4 mph0.6 kmh 30.11 in1019.6 mb 0.00 in0.0 mm 0.00 in0.0 mm 0.04 in1.0 mm
07:44 PM 43.4°F6.3°C 47.3°F8.5°C 88% 1.6 mph NW2.6 kmh NW 1.6 mph2.6 kmh 30.11 in1019.6 mb 0.00 in0.0 mm 0.00 in0.0 mm 0.04 in1.0 mm
07:47 PM 43.4°F6.3°C 47.0°F8.3°C 88% 0.8 mph W1.3 kmh W 0.8 mph1.3 kmh 30.11 in1019.6 mb 0.00 in0.0 mm 0.00 in0.0 mm 0.04 in1.0 mm
07:50 PM 43.4°F6.3°C 47.5°F8.6°C 89% 0.8 mph NNW1.3 kmh NNW 0.8 mph1.3 kmh 30.11 in1019.6 mb 0.00 in0.0 mm 0.00 in0.0 mm 0.04 in1.0 mm
07:53 PM 43.4°F6.3°C 47.2°F8.4°C 88% Calm Calm -- 30.11 in1019.6 mb 0.00 in0.0 mm 0.00 in0.0 mm 0.04 in1.0 mm
07:56 PM 43.3°F6.3°C 47.0°F8.3°C 88% Calm Calm -- 30.11 in1019.6 mb 0.00 in0.0 mm 0.00 in0.0 mm 0.04 in1.0 mm
07:59 PM 43.4°F6.3°C 47.2°F8.4°C 88% 0.8 mph WSW1.3 kmh WSW 0.8 mph1.3 kmh 30.11 in1019.6 mb 0.00 in0.0 mm 0.00 in0.0 mm 0.04 in1.0 mm
08:02 PM 43.3°F6.3°C 47.1°F8.4°C 88% 0.8 mph W1.3 kmh W 0.8 mph1.3 kmh 30.11 in1019.6 mb 0.00 in0.0 mm 0.00 in0.0 mm 0.04 in1.0 mm
08:05 PM 43.3°F6.3°C 47.0°F8.3°C 88% Calm Calm -- 30.11 in1019.6 mb 0.00 in0.0 mm 0.00 in0.0 mm 0.04 in1.0 mm
08:08 PM 43.3°F6.3°C 47.3°F8.5°C 88% 0.8 mph W1.3 kmh W 0.8 mph1.3 kmh 30.11 in1019.6 mb 0.00 in0.0 mm 0.00 in0.0 mm 0.04 in1.0 mm
08:11 PM 43.3°F6.3°C 46.9°F8.3°C 88% 0.8 mph W1.3 kmh W 0.8 mph1.3 kmh 30.12 in1020.0 mb 0.00 in0.0 mm 0.00 in0.0 mm 0.04 in1.0 mm
08:14 PM 43.3°F6.3°C 47.4°F8.6°C 88% 2.4 mph W3.9 kmh W 2.4 mph3.9 kmh 30.12 in1020.0 mb 0.00 in0.0 mm 0.00 in0.0 mm 0.04 in1.0 mm
08:17 PM 43.3°F6.3°C 47.0°F8.3°C 88% 2.8 mph NNW4.5 kmh NNW 2.8 mph4.5 kmh 30.12 in1020.0 mb 0.00 in0.0 mm 0.00 in0.0 mm 0.04 in1.0 mm
08:20 PM 43.3°F6.3°C 47.0°F8.3°C 88% Calm Calm -- 30.13 in1020.3 mb 0.00 in0.0 mm 0.00 in0.0 mm 0.04 in1.0 mm
08:23 PM 43.3°F6.3°C 47.1°F8.4°C 88% 1.9 mph WSW3.1 kmh WSW 2.0 mph3.2 kmh 30.13 in1020.3 mb 0.00 in0.0 mm 0.00 in0.0 mm 0.04 in1.0 mm
08:26 PM 43.3°F6.3°C 47.1°F8.4°C 88% 2.4 mph WSW3.9 kmh WSW 2.4 mph3.9 kmh 30.12 in1020.0 mb 0.00 in0.0 mm 0.00 in0.0 mm 0.04 in1.0 mm
08:29 PM 43.3°F6.3°C 47.0°F8.3°C 88% 1.2 mph W1.9 kmh W 1.2 mph1.9 kmh 30.12 in1020.0 mb 0.00 in0.0 mm 0.00 in0.0 mm 0.04 in1.0 mm
08:32 PM 43.3°F6.3°C 47.0°F8.3°C 88% 1.6 mph W2.6 kmh W 1.6 mph2.6 kmh 30.12 in1020.0 mb 0.00 in0.0 mm 0.00 in0.0 mm 0.04 in1.0 mm
08:35 PM 43.3°F6.3°C 46.9°F8.3°C 88% 3.2 mph W5.1 kmh W 3.3 mph5.3 kmh 30.12 in1020.0 mb 0.00 in0.0 mm 0.00 in0.0 mm 0.04 in1.0 mm
08:38 PM 43.1°F6.2°C 47.1°F8.4°C 88% 3.1 mph W5.0 kmh W 3.3 mph5.3 kmh 30.12 in1020.0 mb 0.00 in0.0 mm 0.00 in0.0 mm 0.04 in1.0 mm
08:41 PM 43.1°F6.2°C 47.0°F8.3°C 88% 1.2 mph NW1.9 kmh NW 1.2 mph1.9 kmh 30.13 in1020.3 mb 0.00 in0.0 mm 0.00 in0.0 mm 0.04 in1.0 mm
08:44 PM 43.1°F6.2°C 46.7°F8.2°C 88% 2.8 mph W4.5 kmh W 2.9 mph4.7 kmh 30.13 in1020.3 mb 0.00 in0.0 mm 0.00 in0.0 mm 0.04 in1.0 mm
08:47 PM 43.1°F6.2°C 47.0°F8.3°C 88% 0.8 mph W1.3 kmh W 0.8 mph1.3 kmh 30.13 in1020.3 mb 0.00 in0.0 mm 0.00 in0.0 mm 0.04 in1.0 mm
08:50 PM 43.0°F6.1°C 47.0°F8.3°C 88% 2.8 mph NNW4.5 kmh NNW 2.9 mph4.7 kmh 30.12 in1020.0 mb 0.00 in0.0 mm 0.00 in0.0 mm 0.04 in1.0 mm
08:53 PM 43.0°F6.1°C 46.7°F8.2°C 88% Calm Calm -- 30.11 in1019.6 mb 0.00 in0.0 mm 0.00 in0.0 mm 0.04 in1.0 mm
08:56 PM 43.0°F6.1°C 46.9°F8.3°C 88% 0.8 mph W1.3 kmh W 0.8 mph1.3 kmh 30.11 in1019.6 mb 0.00 in0.0 mm 0.00 in0.0 mm 0.04 in1.0 mm
08:59 PM 43.0°F6.1°C 46.8°F8.2°C 88% 0.8 mph NNW1.3 kmh NNW 0.8 mph1.3 kmh 30.12 in1020.0 mb 0.00 in0.0 mm 0.00 in0.0 mm 0.04 in1.0 mm
09:02 PM 43.0°F6.1°C 46.8°F8.2°C 88% 1.2 mph W1.9 kmh W 1.2 mph1.9 kmh 30.11 in1019.6 mb 0.00 in0.0 mm 0.00 in0.0 mm 0.04 in1.0 mm
09:05 PM 43.0°F6.1°C 46.9°F8.3°C 88% 2.4 mph W3.9 kmh W 2.4 mph3.9 kmh 30.11 in1019.6 mb 0.00 in0.0 mm 0.00 in0.0 mm 0.04 in1.0 mm
09:08 PM 43.0°F6.1°C 46.6°F8.1°C 88% Calm Calm -- 30.11 in1019.6 mb 0.00 in0.0 mm 0.00 in0.0 mm 0.04 in1.0 mm
09:11 PM 43.0°F6.1°C 46.6°F8.1°C 88% 2.8 mph NNW4.5 kmh NNW 2.8 mph4.5 kmh 30.11 in1019.6 mb 0.00 in0.0 mm 0.00 in0.0 mm 0.04 in1.0 mm
09:14 PM 42.9°F6.1°C 46.5°F8.1°C 88% 3.2 mph W5.1 kmh W 3.3 mph5.3 kmh 30.11 in1019.6 mb 0.00 in0.0 mm 0.00 in0.0 mm 0.04 in1.0 mm
09:17 PM 42.9°F6.1°C 46.5°F8.1°C 88% 4.4 mph WNW7.1 kmh WNW 4.4 mph7.1 kmh 30.12 in1020.0 mb 0.00 in0.0 mm 0.00 in0.0 mm 0.04 in1.0 mm
09:20 PM 42.9°F6.1°C 46.4°F8.0°C 88% 2.4 mph NNW3.9 kmh NNW 2.4 mph3.9 kmh 30.13 in1020.3 mb 0.00 in0.0 mm 0.00 in0.0 mm 0.04 in1.0 mm
09:23 PM 42.9°F6.1°C 46.5°F8.1°C 88% 2.0 mph W3.2 kmh W 2.0 mph3.2 kmh 30.12 in1020.0 mb 0.00 in0.0 mm 0.00 in0.0 mm 0.04 in1.0 mm
09:26 PM 42.9°F6.1°C 46.1°F7.8°C 87% 3.2 mph NW5.1 kmh NW 3.2 mph5.1 kmh 30.13 in1020.3 mb 0.00 in0.0 mm 0.00 in0.0 mm 0.04 in1.0 mm
09:29 PM 42.9°F6.1°C 46.4°F8.0°C 88% 3.1 mph WNW5.0 kmh WNW 3.1 mph5.0 kmh 30.12 in1020.0 mb 0.00 in0.0 mm 0.00 in0.0 mm 0.04 in1.0 mm
09:32 PM 42.8°F6.0°C 46.2°F7.9°C 87% 1.6 mph NNW2.6 kmh NNW 1.6 mph2.6 kmh 30.12 in1020.0 mb 0.00 in0.0 mm 0.00 in0.0 mm 0.04 in1.0 mm
09:35 PM 42.8°F6.0°C 46.2°F7.9°C 88% 0.4 mph NNW0.6 kmh NNW 0.4 mph0.6 kmh 30.13 in1020.3 mb 0.00 in0.0 mm 0.00 in0.0 mm 0.04 in1.0 mm
09:38 PM 42.8°F6.0°C 46.4°F8.0°C 87% 3.6 mph NW5.8 kmh NW 3.6 mph5.8 kmh 30.13 in1020.3 mb 0.00 in0.0 mm 0.00 in0.0 mm 0.04 in1.0 mm
09:41 PM 42.8°F6.0°C 46.5°F8.1°C 88% 4.0 mph NNW6.4 kmh NNW 4.0 mph6.4 kmh 30.13 in1020.3 mb 0.00 in0.0 mm 0.00 in0.0 mm 0.04 in1.0 mm
09:44 PM 42.8°F6.0°C 46.3°F7.9°C 88% 4.6 mph WNW7.4 kmh WNW 4.7 mph7.6 kmh 30.13 in1020.3 mb 0.00 in0.0 mm 0.00 in0.0 mm 0.04 in1.0 mm
09:47 PM 42.8°F6.0°C 46.4°F8.0°C 88% 4.4 mph W7.1 kmh W 4.4 mph7.1 kmh 30.13 in1020.3 mb 0.00 in0.0 mm 0.00 in0.0 mm 0.04 in1.0 mm
09:50 PM 42.8°F6.0°C 46.1°F7.8°C 88% 2.8 mph NW4.5 kmh NW 2.8 mph4.5 kmh 30.13 in1020.3 mb 0.00 in0.0 mm 0.00 in0.0 mm 0.04 in1.0 mm
09:53 PM 42.8°F6.0°C 46.2°F7.9°C 88% 4.9 mph WNW7.9 kmh WNW 4.9 mph7.9 kmh 30.13 in1020.3 mb 0.00 in0.0 mm 0.00 in0.0 mm 0.04 in1.0 mm
09:56 PM 42.8°F6.0°C 46.1°F7.8°C 87% 2.0 mph NNW3.2 kmh NNW 2.0 mph3.2 kmh 30.13 in1020.3 mb 0.00 in0.0 mm 0.00 in0.0 mm 0.04 in1.0 mm
09:59 PM 42.7°F5.9°C 46.2°F7.9°C 87% Calm Calm -- 30.13 in1020.3 mb 0.00 in0.0 mm 0.00 in0.0 mm 0.04 in1.0 mm
10:02 PM 42.7°F5.9°C 46.2°F7.9°C 88% 2.4 mph NW3.9 kmh NW 2.5 mph4.0 kmh 30.13 in1020.3 mb 0.00 in0.0 mm 0.00 in0.0 mm 0.04 in1.0 mm
10:05 PM 42.7°F5.9°C 46.4°F8.0°C 88% 1.6 mph NW2.6 kmh NW 1.6 mph2.6 kmh 30.13 in1020.3 mb 0.00 in0.0 mm 0.00 in0.0 mm 0.04 in1.0 mm
10:08 PM 42.7°F5.9°C 46.3°F7.9°C 88% 3.9 mph NW6.3 kmh NW 4.0 mph6.4 kmh 30.13 in1020.3 mb 0.00 in0.0 mm 0.00 in0.0 mm 0.04 in1.0 mm
10:11 PM 42.7°F5.9°C 46.1°F7.8°C 88% 2.4 mph NNW3.9 kmh NNW 2.4 mph3.9 kmh 30.13 in1020.3 mb 0.00 in0.0 mm 0.00 in0.0 mm 0.04 in1.0 mm
10:14 PM 42.7°F5.9°C 45.7°F7.6°C 86% 2.4 mph NNW3.9 kmh NNW 2.4 mph3.9 kmh 30.13 in1020.3 mb 0.00 in0.0 mm 0.00 in0.0 mm 0.04 in1.0 mm
10:17 PM 42.7°F5.9°C 46.0°F7.8°C 87% 1.6 mph NNW2.6 kmh NNW 1.6 mph2.6 kmh 30.13 in1020.3 mb 0.00 in0.0 mm 0.00 in0.0 mm 0.04 in1.0 mm
10:20 PM 42.6°F5.9°C 46.0°F7.8°C 87% 3.2 mph NNW5.1 kmh NNW 3.2 mph5.1 kmh 30.13 in1020.3 mb 0.00 in0.0 mm 0.00 in0.0 mm 0.04 in1.0 mm
10:23 PM 42.6°F5.9°C 46.3°F7.9°C 88% 2.0 mph NNW3.2 kmh NNW 2.0 mph3.2 kmh 30.13 in1020.3 mb 0.00 in0.0 mm 0.00 in0.0 mm 0.04 in1.0 mm
10:26 PM 42.6°F5.9°C 46.0°F7.8°C 87% 4.0 mph NW6.4 kmh NW 4.1 mph6.6 kmh 30.13 in1020.3 mb 0.00 in0.0 mm 0.00 in0.0 mm 0.04 in1.0 mm
10:29 PM 42.6°F5.9°C 46.1°F7.8°C 88% 3.2 mph W5.1 kmh W 3.2 mph5.1 kmh 30.12 in1020.0 mb 0.00 in0.0 mm 0.00 in0.0 mm 0.04 in1.0 mm
10:32 PM 42.6°F5.9°C 45.9°F7.7°C 87% 3.2 mph W5.1 kmh W 3.2 mph5.1 kmh 30.13 in1020.3 mb 0.00 in0.0 mm 0.00 in0.0 mm 0.04 in1.0 mm
10:35 PM 42.5°F5.8°C 46.3°F7.9°C 88% 0.8 mph W1.3 kmh W 0.8 mph1.3 kmh 30.12 in1020.0 mb 0.00 in0.0 mm 0.00 in0.0 mm 0.04 in1.0 mm
10:38 PM 42.5°F5.8°C 46.1°F7.8°C 88% 1.2 mph NNW1.9 kmh NNW 1.2 mph1.9 kmh 30.12 in1020.0 mb 0.00 in0.0 mm 0.00 in0.0 mm 0.04 in1.0 mm
10:41 PM 42.5°F5.8°C 46.1°F7.8°C 87% 3.2 mph W5.1 kmh W 3.3 mph5.3 kmh 30.12 in1020.0 mb 0.00 in0.0 mm 0.00 in0.0 mm 0.04 in1.0 mm
10:44 PM 42.5°F5.8°C 46.0°F7.8°C 88% 1.2 mph WNW1.9 kmh WNW 1.2 mph1.9 kmh 30.12 in1020.0 mb 0.00 in0.0 mm 0.00 in0.0 mm 0.04 in1.0 mm
10:47 PM 42.5°F5.8°C 45.8°F7.7°C 87% 2.4 mph W3.9 kmh W 2.4 mph3.9 kmh 30.12 in1020.0 mb 0.00 in0.0 mm 0.00 in0.0 mm 0.04 in1.0 mm
10:50 PM 42.5°F5.8°C 46.1°F7.8°C 88% 1.6 mph W2.6 kmh W 1.6 mph2.6 kmh 30.12 in1020.0 mb 0.00 in0.0 mm 0.00 in0.0 mm 0.04 in1.0 mm
10:53 PM 42.5°F5.8°C 45.9°F7.7°C 87% 2.4 mph NW3.9 kmh NW 2.4 mph3.9 kmh 30.12 in1020.0 mb 0.00 in0.0 mm 0.00 in0.0 mm 0.04 in1.0 mm
10:56 PM 42.5°F5.8°C 46.0°F7.8°C 88% Calm Calm -- 30.12 in1020.0 mb 0.00 in0.0 mm 0.00 in0.0 mm 0.04 in1.0 mm
10:59 PM 42.5°F5.8°C 45.8°F7.7°C 87% 4.3 mph NNW6.9 kmh NNW 4.3 mph6.9 kmh 30.11 in1019.6 mb 0.00 in0.0 mm 0.00 in0.0 mm 0.04 in1.0 mm
11:02 PM 42.5°F5.8°C 45.9°F7.7°C 88% 3.6 mph NNW5.8 kmh NNW 3.7 mph6.0 kmh 30.12 in1020.0 mb 0.00 in0.0 mm 0.00 in0.0 mm 0.04 in1.0 mm
11:05 PM 42.5°F5.8°C 46.1°F7.8°C 87% 2.8 mph W4.5 kmh W 2.8 mph4.5 kmh 30.11 in1019.6 mb 0.00 in0.0 mm 0.00 in0.0 mm 0.04 in1.0 mm
11:08 PM 42.4°F5.8°C 46.2°F7.9°C 88% 2.8 mph WNW4.5 kmh WNW 2.8 mph4.5 kmh 30.11 in1019.6 mb 0.00 in0.0 mm 0.00 in0.0 mm 0.04 in1.0 mm
11:11 PM 42.4°F5.8°C 46.0°F7.8°C 88% 1.6 mph W2.6 kmh W 1.6 mph2.6 kmh 30.12 in1020.0 mb 0.00 in0.0 mm 0.00 in0.0 mm 0.04 in1.0 mm
11:14 PM 42.4°F5.8°C 46.0°F7.8°C 88% 1.6 mph W2.6 kmh W 1.6 mph2.6 kmh 30.12 in1020.0 mb 0.00 in0.0 mm 0.00 in0.0 mm 0.04 in1.0 mm
11:17 PM 42.4°F5.8°C 45.9°F7.7°C 88% 2.0 mph W3.2 kmh W 2.0 mph3.2 kmh 30.12 in1020.0 mb 0.00 in0.0 mm 0.00 in0.0 mm 0.04 in1.0 mm
11:20 PM 42.4°F5.8°C 46.0°F7.8°C 88% 2.0 mph W3.2 kmh W 2.0 mph3.2 kmh 30.12 in1020.0 mb 0.00 in0.0 mm 0.00 in0.0 mm 0.04 in1.0 mm
11:23 PM 42.4°F5.8°C 45.7°F7.6°C 88% 2.3 mph NNW3.7 kmh NNW 2.4 mph3.9 kmh 30.12 in1020.0 mb 0.00 in0.0 mm 0.00 in0.0 mm 0.04 in1.0 mm
11:26 PM 42.4°F5.8°C 45.9°F7.7°C 87% 2.4 mph W3.9 kmh W 2.5 mph4.0 kmh 30.12 in1020.0 mb 0.00 in0.0 mm 0.00 in0.0 mm 0.04 in1.0 mm
11:29 PM 42.2°F5.7°C 45.5°F7.5°C 87% 2.4 mph W3.9 kmh W 2.4 mph3.9 kmh 30.12 in1020.0 mb 0.00 in0.0 mm 0.00 in0.0 mm 0.04 in1.0 mm
11:32 PM 42.4°F5.8°C 45.7°F7.6°C 88% 0.4 mph WNW0.6 kmh WNW 0.4 mph0.6 kmh 30.12 in1020.0 mb 0.00 in0.0 mm 0.00 in0.0 mm 0.04 in1.0 mm
11:35 PM 42.2°F5.7°C 45.6°F7.6°C 87% 0.8 mph NW1.3 kmh NW 0.8 mph1.3 kmh 30.11 in1019.6 mb 0.00 in0.0 mm 0.00 in0.0 mm 0.04 in1.0 mm
11:38 PM 42.2°F5.7°C 46.0°F7.8°C 88% 3.8 mph NNW6.1 kmh NNW 3.8 mph6.1 kmh 30.12 in1020.0 mb 0.00 in0.0 mm 0.00 in0.0 mm 0.04 in1.0 mm
11:41 PM 42.4°F5.8°C 45.8°F7.7°C 88% 4.4 mph W7.1 kmh W 4.5 mph7.2 kmh 30.12 in1020.0 mb 0.00 in0.0 mm 0.00 in0.0 mm 0.04 in1.0 mm
11:44 PM 42.2°F5.7°C 45.5°F7.5°C 87% 1.9 mph NNW3.1 kmh NNW 2.0 mph3.2 kmh 30.11 in1019.6 mb 0.00 in0.0 mm 0.00 in0.0 mm 0.04 in1.0 mm
11:47 PM 42.2°F5.7°C 45.7°F7.6°C 88% 2.0 mph WNW3.2 kmh WNW 2.0 mph3.2 kmh 30.11 in1019.6 mb 0.00 in0.0 mm 0.00 in0.0 mm 0.04 in1.0 mm
11:50 PM 42.4°F5.8°C 45.6°F7.6°C 88% 0.8 mph NNW1.3 kmh NNW 0.8 mph1.3 kmh 30.12 in1020.0 mb 0.00 in0.0 mm 0.00 in0.0 mm 0.04 in1.0 mm
11:53 PM 42.4°F5.8°C 45.7°F7.6°C 88% 5.6 mph WNW9.0 kmh WNW 5.6 mph9.0 kmh 30.12 in1020.0 mb 0.00 in0.0 mm 0.00 in0.0 mm 0.04 in1.0 mm
11:56 PM 42.2°F5.7°C 45.7°F7.6°C 88% 5.2 mph WNW8.4 kmh WNW 5.2 mph8.4 kmh 30.11 in1019.6 mb 0.00 in0.0 mm 0.00 in0.0 mm 0.04 in1.0 mm
11:59 PM 42.2°F5.7°C 45.8°F7.7°C 88% 1.6 mph WSW2.6 kmh WSW 1.6 mph2.6 kmh 30.11 in1019.6 mb 0.00 in0.0 mm 0.00 in0.0 mm 0.04 in1.0 mm